<?xml version="1.0" encoding="utf-8"?>
<gpx xmlns:xsi="http://www.w3.org/2001/XMLSchema-instance" xmlns:xsd="http://www.w3.org/2001/XMLSchema" version="1.1" creator="Shapelink.com" xmlns="http://www.topografix.com/GPX/1/1" xmlns:gpxtpx="http://www.garmin.com/xmlschemas/TrackPointExtension/v1">
  <metadata>
    <name>Kører 8.31 km, 2015-11-25</name>
    <desc></desc>
    <author><name>Stefan Östlund</name></author> 
    <time>2015-11-25T19:35:06Z</time>
  </metadata>
  <trk>
    <name>Kører 8.31 km, 2015-11-25</name>
    <trkseg>
      <trkpt lat="59.985373959902" lon="15.827137259506">
        <ele>5410</ele>
        <time>2015-11-25T19:35:06Z</time>
      </trkpt>
      <trkpt lat="59.98538753858" lon="15.827140612266">
        <ele>5368.8</ele>
        <time>2015-11-25T19:35:07Z</time>
      </trkpt>
      <trkpt lat="59.985431878831" lon="15.827143965026">
        <ele>8907</ele>
        <time>2015-11-25T19:35:09Z</time>
      </trkpt>
      <trkpt lat="59.985473285417" lon="15.827143797388">
        <ele>8907</ele>
        <time>2015-11-25T19:35:11Z</time>
      </trkpt>
      <trkpt lat="59.985595158243" lon="15.827160728826">
        <ele>8907</ele>
        <time>2015-11-25T19:35:17Z</time>
      </trkpt>
      <trkpt lat="59.985709319721" lon="15.827172631124">
        <ele>8907</ele>
        <time>2015-11-25T19:35:23Z</time>
      </trkpt>
      <trkpt lat="59.985831946918" lon="15.827251504803">
        <ele>8907</ele>
        <time>2015-11-25T19:35:29Z</time>
      </trkpt>
      <trkpt lat="59.985914592452" lon="15.827370695421">
        <ele>8907</ele>
        <time>2015-11-25T19:35:35Z</time>
      </trkpt>
      <trkpt lat="59.986017773641" lon="15.827431883291">
        <ele>8907</ele>
        <time>2015-11-25T19:35:41Z</time>
      </trkpt>
      <trkpt lat="59.986114333129" lon="15.827498100301">
        <ele>8907</ele>
        <time>2015-11-25T19:35:47Z</time>
      </trkpt>
      <trkpt lat="59.986214748291" lon="15.827549397529">
        <ele>8907</ele>
        <time>2015-11-25T19:35:52Z</time>
      </trkpt>
      <trkpt lat="59.986306949191" lon="15.827578566541">
        <ele>8907</ele>
        <time>2015-11-25T19:35:57Z</time>
      </trkpt>
      <trkpt lat="59.986409124552" lon="15.827607735553">
        <ele>8907</ele>
        <time>2015-11-25T19:36:03Z</time>
      </trkpt>
      <trkpt lat="59.98652496241" lon="15.827657775496">
        <ele>8907</ele>
        <time>2015-11-25T19:36:08Z</time>
      </trkpt>
      <trkpt lat="59.986632418368" lon="15.827705468507">
        <ele>8907</ele>
        <time>2015-11-25T19:36:13Z</time>
      </trkpt>
      <trkpt lat="59.986756051393" lon="15.827746791274">
        <ele>8907</ele>
        <time>2015-11-25T19:36:19Z</time>
      </trkpt>
      <trkpt lat="59.986871805432" lon="15.827784677462">
        <ele>8907</ele>
        <time>2015-11-25T19:36:24Z</time>
      </trkpt>
      <trkpt lat="59.986998707398" lon="15.827831951378">
        <ele>8907</ele>
        <time>2015-11-25T19:36:30Z</time>
      </trkpt>
      <trkpt lat="59.987115215808" lon="15.827886936642">
        <ele>8907</ele>
        <time>2015-11-25T19:36:36Z</time>
      </trkpt>
      <trkpt lat="59.987213032581" lon="15.827921134794">
        <ele>8907</ele>
        <time>2015-11-25T19:36:41Z</time>
      </trkpt>
      <trkpt lat="59.987330882095" lon="15.827960362086">
        <ele>8907</ele>
        <time>2015-11-25T19:36:47Z</time>
      </trkpt>
      <trkpt lat="59.987456778233" lon="15.828018532472">
        <ele>8907</ele>
        <time>2015-11-25T19:36:53Z</time>
      </trkpt>
      <trkpt lat="59.987577309955" lon="15.828077624867">
        <ele>8907</ele>
        <time>2015-11-25T19:36:59Z</time>
      </trkpt>
      <trkpt lat="59.987694572736" lon="15.828109056992">
        <ele>8907</ele>
        <time>2015-11-25T19:37:04Z</time>
      </trkpt>
      <trkpt lat="59.987851565723" lon="15.828161611505">
        <ele>8907</ele>
        <time>2015-11-25T19:37:11Z</time>
      </trkpt>
      <trkpt lat="59.988009732176" lon="15.828184326454">
        <ele>8907</ele>
        <time>2015-11-25T19:37:18Z</time>
      </trkpt>
      <trkpt lat="59.988102687447" lon="15.828185164644">
        <ele>8907</ele>
        <time>2015-11-25T19:37:23Z</time>
      </trkpt>
      <trkpt lat="59.988125989129" lon="15.828182314798">
        <ele>8907</ele>
        <time>2015-11-25T19:37:24Z</time>
      </trkpt>
      <trkpt lat="59.988279377899" lon="15.828151301768">
        <ele>8907</ele>
        <time>2015-11-25T19:37:31Z</time>
      </trkpt>
      <trkpt lat="59.988408291521" lon="15.828158007288">
        <ele>8907</ele>
        <time>2015-11-25T19:37:37Z</time>
      </trkpt>
      <trkpt lat="59.988421283466" lon="15.828182398617">
        <ele>8907</ele>
        <time>2015-11-25T19:37:38Z</time>
      </trkpt>
      <trkpt lat="59.988445674795" lon="15.828280047752">
        <ele>8907</ele>
        <time>2015-11-25T19:37:41Z</time>
      </trkpt>
      <trkpt lat="59.988488757761" lon="15.828498647704">
        <ele>8907</ele>
        <time>2015-11-25T19:37:47Z</time>
      </trkpt>
      <trkpt lat="59.988515328384" lon="15.828619095607">
        <ele>8907</ele>
        <time>2015-11-25T19:37:50Z</time>
      </trkpt>
      <trkpt lat="59.988532259822" lon="15.828693862155">
        <ele>8907</ele>
        <time>2015-11-25T19:37:52Z</time>
      </trkpt>
      <trkpt lat="59.988542988654" lon="15.828771310911">
        <ele>8907</ele>
        <time>2015-11-25T19:37:54Z</time>
      </trkpt>
      <trkpt lat="59.988564027223" lon="15.828844987812">
        <ele>8907</ele>
        <time>2015-11-25T19:37:56Z</time>
      </trkpt>
      <trkpt lat="59.988622449066" lon="15.829120584684">
        <ele>8907</ele>
        <time>2015-11-25T19:38:03Z</time>
      </trkpt>
      <trkpt lat="59.988725546436" lon="15.829277912947">
        <ele>8907</ele>
        <time>2015-11-25T19:38:09Z</time>
      </trkpt>
      <trkpt lat="59.988864266881" lon="15.829394672814">
        <ele>8907</ele>
        <time>2015-11-25T19:38:16Z</time>
      </trkpt>
      <trkpt lat="59.988979769463" lon="15.829485951705">
        <ele>8907</ele>
        <time>2015-11-25T19:38:22Z</time>
      </trkpt>
      <trkpt lat="59.989103905402" lon="15.829606567246">
        <ele>8907</ele>
        <time>2015-11-25T19:38:29Z</time>
      </trkpt>
      <trkpt lat="59.989197615044" lon="15.829700360707">
        <ele>8907</ele>
        <time>2015-11-25T19:38:34Z</time>
      </trkpt>
      <trkpt lat="59.989346226131" lon="15.829916026994">
        <ele>8907</ele>
        <time>2015-11-25T19:38:43Z</time>
      </trkpt>
      <trkpt lat="59.989456699573" lon="15.830166059071">
        <ele>8907</ele>
        <time>2015-11-25T19:38:51Z</time>
      </trkpt>
      <trkpt lat="59.98947455302" lon="15.830374433105">
        <ele>8907</ele>
        <time>2015-11-25T19:38:56Z</time>
      </trkpt>
      <trkpt lat="59.989464746197" lon="15.83040251247">
        <ele>8907</ele>
        <time>2015-11-25T19:38:57Z</time>
      </trkpt>
      <trkpt lat="59.989393332409" lon="15.830566965348">
        <ele>8907</ele>
        <time>2015-11-25T19:39:03Z</time>
      </trkpt>
      <trkpt lat="59.9893337371" lon="15.83068162974">
        <ele>8907</ele>
        <time>2015-11-25T19:39:07Z</time>
      </trkpt>
      <trkpt lat="59.989245140417" lon="15.830882962978">
        <ele>8907</ele>
        <time>2015-11-25T19:39:13Z</time>
      </trkpt>
      <trkpt lat="59.989167524023" lon="15.831049678969">
        <ele>8907</ele>
        <time>2015-11-25T19:39:18Z</time>
      </trkpt>
      <trkpt lat="59.989156124639" lon="15.83114933976">
        <ele>8907</ele>
        <time>2015-11-25T19:39:22Z</time>
      </trkpt>
      <trkpt lat="59.989171631154" lon="15.83120382211">
        <ele>8907</ele>
        <time>2015-11-25T19:39:24Z</time>
      </trkpt>
      <trkpt lat="59.989196357759" lon="15.831329131515">
        <ele>8907</ele>
        <time>2015-11-25T19:39:27Z</time>
      </trkpt>
      <trkpt lat="59.989247738806" lon="15.831481179181">
        <ele>8907</ele>
        <time>2015-11-25T19:39:31Z</time>
      </trkpt>
      <trkpt lat="59.989294677446" lon="15.831566004009">
        <ele>8907</ele>
        <time>2015-11-25T19:39:34Z</time>
      </trkpt>
      <trkpt lat="59.989326109571" lon="15.831625347861">
        <ele>8907</ele>
        <time>2015-11-25T19:39:36Z</time>
      </trkpt>
      <trkpt lat="59.989400708481" lon="15.831750824904">
        <ele>8907</ele>
        <time>2015-11-25T19:39:41Z</time>
      </trkpt>
      <trkpt lat="59.989500201634" lon="15.831914942506">
        <ele>8907</ele>
        <time>2015-11-25T19:39:47Z</time>
      </trkpt>
      <trkpt lat="59.98951394795" lon="15.831940423482">
        <ele>8907</ele>
        <time>2015-11-25T19:39:48Z</time>
        <extensions><gpxtpx:TrackPointExtension><gpxtpx:hr>101</gpxtpx:hr></gpxtpx:TrackPointExtension></extensions>
      </trkpt>
      <trkpt lat="59.989532304311" lon="15.831973448168">
        <ele>8907</ele>
        <time>2015-11-25T19:39:49Z</time>
        <extensions><gpxtpx:TrackPointExtension><gpxtpx:hr>78</gpxtpx:hr></gpxtpx:TrackPointExtension></extensions>
      </trkpt>
      <trkpt lat="59.989550912129" lon="15.832000689343">
        <ele>8907</ele>
        <time>2015-11-25T19:39:50Z</time>
        <extensions><gpxtpx:TrackPointExtension><gpxtpx:hr>88</gpxtpx:hr></gpxtpx:TrackPointExtension></extensions>
      </trkpt>
      <trkpt lat="59.989567005377" lon="15.832016195858">
        <ele>8907</ele>
        <time>2015-11-25T19:39:51Z</time>
        <extensions><gpxtpx:TrackPointExtension><gpxtpx:hr>103</gpxtpx:hr></gpxtpx:TrackPointExtension></extensions>
      </trkpt>
      <trkpt lat="59.989585361738" lon="15.83204033573">
        <ele>8907</ele>
        <time>2015-11-25T19:39:52Z</time>
        <extensions><gpxtpx:TrackPointExtension><gpxtpx:hr>110</gpxtpx:hr></gpxtpx:TrackPointExtension></extensions>
      </trkpt>
      <trkpt lat="59.989603550461" lon="15.832064140326">
        <ele>8907</ele>
        <time>2015-11-25T19:39:53Z</time>
        <extensions><gpxtpx:TrackPointExtension><gpxtpx:hr>125</gpxtpx:hr></gpxtpx:TrackPointExtension></extensions>
      </trkpt>
      <trkpt lat="59.989626181591" lon="15.832080904126">
        <ele>8907</ele>
        <time>2015-11-25T19:39:54Z</time>
        <extensions><gpxtpx:TrackPointExtension><gpxtpx:hr>125</gpxtpx:hr></gpxtpx:TrackPointExtension></extensions>
      </trkpt>
      <trkpt lat="59.989639844088" lon="15.832103283799">
        <ele>8907</ele>
        <time>2015-11-25T19:39:55Z</time>
        <extensions><gpxtpx:TrackPointExtension><gpxtpx:hr>136</gpxtpx:hr></gpxtpx:TrackPointExtension></extensions>
      </trkpt>
      <trkpt lat="59.989658368087" lon="15.832133039544">
        <ele>8907</ele>
        <time>2015-11-25T19:39:56Z</time>
        <extensions><gpxtpx:TrackPointExtension><gpxtpx:hr>143</gpxtpx:hr></gpxtpx:TrackPointExtension></extensions>
      </trkpt>
      <trkpt lat="59.989682507959" lon="15.832157933787">
        <ele>8907</ele>
        <time>2015-11-25T19:39:57Z</time>
        <extensions><gpxtpx:TrackPointExtension><gpxtpx:hr>143</gpxtpx:hr></gpxtpx:TrackPointExtension></extensions>
      </trkpt>
      <trkpt lat="59.98977462504" lon="15.83227083798">
        <ele>8907</ele>
        <time>2015-11-25T19:40:03Z</time>
        <extensions><gpxtpx:TrackPointExtension><gpxtpx:hr>144</gpxtpx:hr></gpxtpx:TrackPointExtension></extensions>
      </trkpt>
      <trkpt lat="59.989834387987" lon="15.832337222628">
        <ele>8907</ele>
        <time>2015-11-25T19:40:06Z</time>
        <extensions><gpxtpx:TrackPointExtension><gpxtpx:hr>148</gpxtpx:hr></gpxtpx:TrackPointExtension></extensions>
      </trkpt>
      <trkpt lat="59.989870513976" lon="15.832382736345">
        <ele>8907</ele>
        <time>2015-11-25T19:40:08Z</time>
        <extensions><gpxtpx:TrackPointExtension><gpxtpx:hr>152</gpxtpx:hr></gpxtpx:TrackPointExtension></extensions>
      </trkpt>
      <trkpt lat="59.989887026319" lon="15.832408887873">
        <ele>8907</ele>
        <time>2015-11-25T19:40:09Z</time>
        <extensions><gpxtpx:TrackPointExtension><gpxtpx:hr>153</gpxtpx:hr></gpxtpx:TrackPointExtension></extensions>
      </trkpt>
      <trkpt lat="59.989946956904" lon="15.832460185101">
        <ele>8907</ele>
        <time>2015-11-25T19:40:12Z</time>
        <extensions><gpxtpx:TrackPointExtension><gpxtpx:hr>156</gpxtpx:hr></gpxtpx:TrackPointExtension></extensions>
      </trkpt>
      <trkpt lat="59.989966151455" lon="15.832448366622">
        <ele>8907</ele>
        <time>2015-11-25T19:40:13Z</time>
        <extensions><gpxtpx:TrackPointExtension><gpxtpx:hr>156</gpxtpx:hr></gpxtpx:TrackPointExtension></extensions>
      </trkpt>
      <trkpt lat="59.990030608266" lon="15.83227083798">
        <ele>8907</ele>
        <time>2015-11-25T19:40:18Z</time>
        <extensions><gpxtpx:TrackPointExtension><gpxtpx:hr>156</gpxtpx:hr></gpxtpx:TrackPointExtension></extensions>
      </trkpt>
      <trkpt lat="59.990080061476" lon="15.832090962406">
        <ele>8907</ele>
        <time>2015-11-25T19:40:23Z</time>
        <extensions><gpxtpx:TrackPointExtension><gpxtpx:hr>157</gpxtpx:hr></gpxtpx:TrackPointExtension></extensions>
      </trkpt>
      <trkpt lat="59.990093304878" lon="15.832040754825">
        <ele>8907</ele>
        <time>2015-11-25T19:40:24Z</time>
        <extensions><gpxtpx:TrackPointExtension><gpxtpx:hr>157</gpxtpx:hr></gpxtpx:TrackPointExtension></extensions>
      </trkpt>
      <trkpt lat="59.990158599879" lon="15.831846462383">
        <ele>8907</ele>
        <time>2015-11-25T19:40:29Z</time>
        <extensions><gpxtpx:TrackPointExtension><gpxtpx:hr>160</gpxtpx:hr></gpxtpx:TrackPointExtension></extensions>
      </trkpt>
      <trkpt lat="59.990229091658" lon="15.831628532983">
        <ele>8907</ele>
        <time>2015-11-25T19:40:35Z</time>
        <extensions><gpxtpx:TrackPointExtension><gpxtpx:hr>158</gpxtpx:hr></gpxtpx:TrackPointExtension></extensions>
      </trkpt>
      <trkpt lat="59.990330261191" lon="15.83134966717">
        <ele>8907</ele>
        <time>2015-11-25T19:40:42Z</time>
        <extensions><gpxtpx:TrackPointExtension><gpxtpx:hr>158</gpxtpx:hr></gpxtpx:TrackPointExtension></extensions>
      </trkpt>
      <trkpt lat="59.990355239253" lon="15.831285713273">
        <ele>8907</ele>
        <time>2015-11-25T19:40:44Z</time>
        <extensions><gpxtpx:TrackPointExtension><gpxtpx:hr>155</gpxtpx:hr></gpxtpx:TrackPointExtension></extensions>
      </trkpt>
      <trkpt lat="59.990410308336" lon="15.831142298964">
        <ele>8907</ele>
        <time>2015-11-25T19:40:48Z</time>
        <extensions><gpxtpx:TrackPointExtension><gpxtpx:hr>157</gpxtpx:hr></gpxtpx:TrackPointExtension></extensions>
      </trkpt>
      <trkpt lat="59.990505023806" lon="15.830914227465">
        <ele>8907</ele>
        <time>2015-11-25T19:40:55Z</time>
        <extensions><gpxtpx:TrackPointExtension><gpxtpx:hr>159</gpxtpx:hr></gpxtpx:TrackPointExtension></extensions>
      </trkpt>
      <trkpt lat="59.990602253846" lon="15.830699399368">
        <ele>8907</ele>
        <time>2015-11-25T19:41:01Z</time>
        <extensions><gpxtpx:TrackPointExtension><gpxtpx:hr>158</gpxtpx:hr></gpxtpx:TrackPointExtension></extensions>
      </trkpt>
      <trkpt lat="59.990707195234" lon="15.830453893517">
        <ele>8907</ele>
        <time>2015-11-25T19:41:08Z</time>
        <extensions><gpxtpx:TrackPointExtension><gpxtpx:hr>160</gpxtpx:hr></gpxtpx:TrackPointExtension></extensions>
      </trkpt>
      <trkpt lat="59.990772238778" lon="15.830278208893">
        <ele>8907</ele>
        <time>2015-11-25T19:41:13Z</time>
        <extensions><gpxtpx:TrackPointExtension><gpxtpx:hr>159</gpxtpx:hr></gpxtpx:TrackPointExtension></extensions>
      </trkpt>
      <trkpt lat="59.990848681706" lon="15.830108140142">
        <ele>8907</ele>
        <time>2015-11-25T19:41:18Z</time>
        <extensions><gpxtpx:TrackPointExtension><gpxtpx:hr>158</gpxtpx:hr></gpxtpx:TrackPointExtension></extensions>
      </trkpt>
      <trkpt lat="59.990927639204" lon="15.829948632585">
        <ele>8907</ele>
        <time>2015-11-25T19:41:23Z</time>
        <extensions><gpxtpx:TrackPointExtension><gpxtpx:hr>159</gpxtpx:hr></gpxtpx:TrackPointExtension></extensions>
      </trkpt>
      <trkpt lat="59.991008356901" lon="15.829779653481">
        <ele>8907</ele>
        <time>2015-11-25T19:41:28Z</time>
        <extensions><gpxtpx:TrackPointExtension><gpxtpx:hr>158</gpxtpx:hr></gpxtpx:TrackPointExtension></extensions>
      </trkpt>
      <trkpt lat="59.991082536716" lon="15.829623247227">
        <ele>8907</ele>
        <time>2015-11-25T19:41:33Z</time>
        <extensions><gpxtpx:TrackPointExtension><gpxtpx:hr>158</gpxtpx:hr></gpxtpx:TrackPointExtension></extensions>
      </trkpt>
      <trkpt lat="59.991150262468" lon="15.829475139054">
        <ele>8907</ele>
        <time>2015-11-25T19:41:38Z</time>
        <extensions><gpxtpx:TrackPointExtension><gpxtpx:hr>158</gpxtpx:hr></gpxtpx:TrackPointExtension></extensions>
      </trkpt>
      <trkpt lat="59.991176413996" lon="15.82942434474">
        <ele>8907</ele>
        <time>2015-11-25T19:41:40Z</time>
        <extensions><gpxtpx:TrackPointExtension><gpxtpx:hr>154</gpxtpx:hr></gpxtpx:TrackPointExtension></extensions>
      </trkpt>
      <trkpt lat="59.991186388457" lon="15.829403473809">
        <ele>8907</ele>
        <time>2015-11-25T19:41:41Z</time>
        <extensions><gpxtpx:TrackPointExtension><gpxtpx:hr>149</gpxtpx:hr></gpxtpx:TrackPointExtension></extensions>
      </trkpt>
      <trkpt lat="59.991196782013" lon="15.829384446896">
        <ele>8907</ele>
        <time>2015-11-25T19:41:42Z</time>
        <extensions><gpxtpx:TrackPointExtension><gpxtpx:hr>145</gpxtpx:hr></gpxtpx:TrackPointExtension></extensions>
      </trkpt>
      <trkpt lat="59.991214300184" lon="15.829353685323">
        <ele>8907</ele>
        <time>2015-11-25T19:41:44Z</time>
        <extensions><gpxtpx:TrackPointExtension><gpxtpx:hr>142</gpxtpx:hr></gpxtpx:TrackPointExtension></extensions>
      </trkpt>
      <trkpt lat="59.991222933541" lon="15.829337759713">
        <ele>8907</ele>
        <time>2015-11-25T19:41:45Z</time>
        <extensions><gpxtpx:TrackPointExtension><gpxtpx:hr>140</gpxtpx:hr></gpxtpx:TrackPointExtension></extensions>
      </trkpt>
      <trkpt lat="59.99124816306" lon="15.829297191317">
        <ele>8907</ele>
        <time>2015-11-25T19:41:48Z</time>
        <extensions><gpxtpx:TrackPointExtension><gpxtpx:hr>136</gpxtpx:hr></gpxtpx:TrackPointExtension></extensions>
      </trkpt>
      <trkpt lat="59.991305914351" lon="15.829207588806">
        <ele>8907</ele>
        <time>2015-11-25T19:41:53Z</time>
        <extensions><gpxtpx:TrackPointExtension><gpxtpx:hr>134</gpxtpx:hr></gpxtpx:TrackPointExtension></extensions>
      </trkpt>
      <trkpt lat="59.991375651759" lon="15.829076747347">
        <ele>8907</ele>
        <time>2015-11-25T19:41:57Z</time>
        <extensions><gpxtpx:TrackPointExtension><gpxtpx:hr>135</gpxtpx:hr></gpxtpx:TrackPointExtension></extensions>
      </trkpt>
      <trkpt lat="59.991427703358" lon="15.828987312474">
        <ele>8907</ele>
        <time>2015-11-25T19:42:00Z</time>
        <extensions><gpxtpx:TrackPointExtension><gpxtpx:hr>140</gpxtpx:hr></gpxtpx:TrackPointExtension></extensions>
      </trkpt>
      <trkpt lat="59.991443209873" lon="15.828959819842">
        <ele>8907</ele>
        <time>2015-11-25T19:42:01Z</time>
        <extensions><gpxtpx:TrackPointExtension><gpxtpx:hr>140</gpxtpx:hr></gpxtpx:TrackPointExtension></extensions>
      </trkpt>
      <trkpt lat="59.991459806035" lon="15.828929477364">
        <ele>8907</ele>
        <time>2015-11-25T19:42:02Z</time>
        <extensions><gpxtpx:TrackPointExtension><gpxtpx:hr>140</gpxtpx:hr></gpxtpx:TrackPointExtension></extensions>
      </trkpt>
      <trkpt lat="59.991548989451" lon="15.828790924557">
        <ele>8907</ele>
        <time>2015-11-25T19:42:07Z</time>
        <extensions><gpxtpx:TrackPointExtension><gpxtpx:hr>143</gpxtpx:hr></gpxtpx:TrackPointExtension></extensions>
      </trkpt>
      <trkpt lat="59.991585869811" lon="15.828732670352">
        <ele>8907</ele>
        <time>2015-11-25T19:42:09Z</time>
        <extensions><gpxtpx:TrackPointExtension><gpxtpx:hr>143</gpxtpx:hr></gpxtpx:TrackPointExtension></extensions>
      </trkpt>
      <trkpt lat="59.991705060429" lon="15.828540221928">
        <ele>8907</ele>
        <time>2015-11-25T19:42:16Z</time>
        <extensions><gpxtpx:TrackPointExtension><gpxtpx:hr>143</gpxtpx:hr></gpxtpx:TrackPointExtension></extensions>
      </trkpt>
      <trkpt lat="59.991724422618" lon="15.828502838654">
        <ele>8907</ele>
        <time>2015-11-25T19:42:17Z</time>
        <extensions><gpxtpx:TrackPointExtension><gpxtpx:hr>139</gpxtpx:hr></gpxtpx:TrackPointExtension></extensions>
      </trkpt>
      <trkpt lat="59.991805475591" lon="15.828417594731">
        <ele>8907</ele>
        <time>2015-11-25T19:42:21Z</time>
        <extensions><gpxtpx:TrackPointExtension><gpxtpx:hr>140</gpxtpx:hr></gpxtpx:TrackPointExtension></extensions>
      </trkpt>
      <trkpt lat="59.991916871042" lon="15.828404854243">
        <ele>8907</ele>
        <time>2015-11-25T19:42:26Z</time>
        <extensions><gpxtpx:TrackPointExtension><gpxtpx:hr>141</gpxtpx:hr></gpxtpx:TrackPointExtension></extensions>
      </trkpt>
      <trkpt lat="59.992005970639" lon="15.828430838133">
        <ele>8907</ele>
        <time>2015-11-25T19:42:30Z</time>
        <extensions><gpxtpx:TrackPointExtension><gpxtpx:hr>138</gpxtpx:hr></gpxtpx:TrackPointExtension></extensions>
      </trkpt>
      <trkpt lat="59.992048885967" lon="15.82844533882">
        <ele>8907</ele>
        <time>2015-11-25T19:42:32Z</time>
        <extensions><gpxtpx:TrackPointExtension><gpxtpx:hr>138</gpxtpx:hr></gpxtpx:TrackPointExtension></extensions>
      </trkpt>
      <trkpt lat="59.992136225365" lon="15.828570061492">
        <ele>8907</ele>
        <time>2015-11-25T19:42:37Z</time>
        <extensions><gpxtpx:TrackPointExtension><gpxtpx:hr>136</gpxtpx:hr></gpxtpx:TrackPointExtension></extensions>
      </trkpt>
      <trkpt lat="59.992205040764" lon="15.828664022591">
        <ele>8907</ele>
        <time>2015-11-25T19:42:41Z</time>
        <extensions><gpxtpx:TrackPointExtension><gpxtpx:hr>139</gpxtpx:hr></gpxtpx:TrackPointExtension></extensions>
      </trkpt>
      <trkpt lat="59.992221134012" lon="15.828691179947">
        <ele>8907</ele>
        <time>2015-11-25T19:42:42Z</time>
        <extensions><gpxtpx:TrackPointExtension><gpxtpx:hr>139</gpxtpx:hr></gpxtpx:TrackPointExtension></extensions>
      </trkpt>
      <trkpt lat="59.992300259148" lon="15.828844484898">
        <ele>8907</ele>
        <time>2015-11-25T19:42:47Z</time>
        <extensions><gpxtpx:TrackPointExtension><gpxtpx:hr>154</gpxtpx:hr></gpxtpx:TrackPointExtension></extensions>
      </trkpt>
      <trkpt lat="59.992316771491" lon="15.828872983358">
        <ele>8907</ele>
        <time>2015-11-25T19:42:48Z</time>
        <extensions><gpxtpx:TrackPointExtension><gpxtpx:hr>152</gpxtpx:hr></gpxtpx:TrackPointExtension></extensions>
      </trkpt>
      <trkpt lat="59.992356753154" lon="15.828940792929">
        <ele>8907</ele>
        <time>2015-11-25T19:42:50Z</time>
        <extensions><gpxtpx:TrackPointExtension><gpxtpx:hr>149</gpxtpx:hr></gpxtpx:TrackPointExtension></extensions>
      </trkpt>
      <trkpt lat="59.992370415651" lon="15.82896250205">
        <ele>8907</ele>
        <time>2015-11-25T19:42:51Z</time>
        <extensions><gpxtpx:TrackPointExtension><gpxtpx:hr>146</gpxtpx:hr></gpxtpx:TrackPointExtension></extensions>
      </trkpt>
      <trkpt lat="59.992392040953" lon="15.828990581415">
        <ele>8907</ele>
        <time>2015-11-25T19:42:52Z</time>
        <extensions><gpxtpx:TrackPointExtension><gpxtpx:hr>146</gpxtpx:hr></gpxtpx:TrackPointExtension></extensions>
      </trkpt>
      <trkpt lat="59.992479967084" lon="15.829142796719">
        <ele>8907</ele>
        <time>2015-11-25T19:42:57Z</time>
        <extensions><gpxtpx:TrackPointExtension><gpxtpx:hr>146</gpxtpx:hr></gpxtpx:TrackPointExtension></extensions>
      </trkpt>
      <trkpt lat="59.992498574902" lon="15.829179341803">
        <ele>8907</ele>
        <time>2015-11-25T19:42:58Z</time>
        <extensions><gpxtpx:TrackPointExtension><gpxtpx:hr>149</gpxtpx:hr></gpxtpx:TrackPointExtension></extensions>
      </trkpt>
      <trkpt lat="59.992580298427" lon="15.829333317306">
        <ele>8907</ele>
        <time>2015-11-25T19:43:03Z</time>
        <extensions><gpxtpx:TrackPointExtension><gpxtpx:hr>147</gpxtpx:hr></gpxtpx:TrackPointExtension></extensions>
      </trkpt>
      <trkpt lat="59.992689933679" lon="15.829518473477">
        <ele>8907</ele>
        <time>2015-11-25T19:43:09Z</time>
        <extensions><gpxtpx:TrackPointExtension><gpxtpx:hr>145</gpxtpx:hr></gpxtpx:TrackPointExtension></extensions>
      </trkpt>
      <trkpt lat="59.992798563103" lon="15.829660546682">
        <ele>8907</ele>
        <time>2015-11-25T19:43:15Z</time>
        <extensions><gpxtpx:TrackPointExtension><gpxtpx:hr>143</gpxtpx:hr></gpxtpx:TrackPointExtension></extensions>
      </trkpt>
      <trkpt lat="59.992894116763" lon="15.829759536921">
        <ele>8907</ele>
        <time>2015-11-25T19:43:20Z</time>
        <extensions><gpxtpx:TrackPointExtension><gpxtpx:hr>144</gpxtpx:hr></gpxtpx:TrackPointExtension></extensions>
      </trkpt>
      <trkpt lat="59.992992184993" lon="15.829848049785">
        <ele>8907</ele>
        <time>2015-11-25T19:43:25Z</time>
        <extensions><gpxtpx:TrackPointExtension><gpxtpx:hr>144</gpxtpx:hr></gpxtpx:TrackPointExtension></extensions>
      </trkpt>
      <trkpt lat="59.993107519937" lon="15.829920637039">
        <ele>8907</ele>
        <time>2015-11-25T19:43:31Z</time>
        <extensions><gpxtpx:TrackPointExtension><gpxtpx:hr>146</gpxtpx:hr></gpxtpx:TrackPointExtension></extensions>
      </trkpt>
      <trkpt lat="59.993172479662" lon="15.829951901526">
        <ele>8907</ele>
        <time>2015-11-25T19:43:34Z</time>
        <extensions><gpxtpx:TrackPointExtension><gpxtpx:hr>150</gpxtpx:hr></gpxtpx:TrackPointExtension></extensions>
      </trkpt>
      <trkpt lat="59.993233499894" lon="15.829977969235">
        <ele>8907</ele>
        <time>2015-11-25T19:43:37Z</time>
        <extensions><gpxtpx:TrackPointExtension><gpxtpx:hr>150</gpxtpx:hr></gpxtpx:TrackPointExtension></extensions>
      </trkpt>
      <trkpt lat="59.993350762675" lon="15.830007892618">
        <ele>8907</ele>
        <time>2015-11-25T19:43:43Z</time>
        <extensions><gpxtpx:TrackPointExtension><gpxtpx:hr>149</gpxtpx:hr></gpxtpx:TrackPointExtension></extensions>
      </trkpt>
      <trkpt lat="59.993476574994" lon="15.830042258408">
        <ele>8907</ele>
        <time>2015-11-25T19:43:49Z</time>
        <extensions><gpxtpx:TrackPointExtension><gpxtpx:hr>148</gpxtpx:hr></gpxtpx:TrackPointExtension></extensions>
      </trkpt>
      <trkpt lat="59.99352133434" lon="15.830057262009">
        <ele>8907</ele>
        <time>2015-11-25T19:43:53Z</time>
        <extensions><gpxtpx:TrackPointExtension><gpxtpx:hr>147</gpxtpx:hr></gpxtpx:TrackPointExtension></extensions>
      </trkpt>
      <trkpt lat="59.99369064872" lon="15.830095567292">
        <ele>8907</ele>
        <time>2015-11-25T19:44:01Z</time>
        <extensions><gpxtpx:TrackPointExtension><gpxtpx:hr>146</gpxtpx:hr></gpxtpx:TrackPointExtension></extensions>
      </trkpt>
      <trkpt lat="59.99385828672" lon="15.830142422113">
        <ele>8907</ele>
        <time>2015-11-25T19:44:09Z</time>
        <extensions><gpxtpx:TrackPointExtension><gpxtpx:hr>146</gpxtpx:hr></gpxtpx:TrackPointExtension></extensions>
      </trkpt>
      <trkpt lat="59.993939255874" lon="15.830076288922">
        <ele>8907</ele>
        <time>2015-11-25T19:44:13Z</time>
        <extensions><gpxtpx:TrackPointExtension><gpxtpx:hr>146</gpxtpx:hr></gpxtpx:TrackPointExtension></extensions>
      </trkpt>
      <trkpt lat="59.993945877575" lon="15.830035469069">
        <ele>8907</ele>
        <time>2015-11-25T19:44:14Z</time>
        <extensions><gpxtpx:TrackPointExtension><gpxtpx:hr>146</gpxtpx:hr></gpxtpx:TrackPointExtension></extensions>
      </trkpt>
      <trkpt lat="59.993999186459" lon="15.829711592453">
        <ele>8907</ele>
        <time>2015-11-25T19:44:21Z</time>
        <extensions><gpxtpx:TrackPointExtension><gpxtpx:hr>148</gpxtpx:hr></gpxtpx:TrackPointExtension></extensions>
      </trkpt>
      <trkpt lat="59.994018297191" lon="15.829381429412">
        <ele>8907</ele>
        <time>2015-11-25T19:44:28Z</time>
        <extensions><gpxtpx:TrackPointExtension><gpxtpx:hr>147</gpxtpx:hr></gpxtpx:TrackPointExtension></extensions>
      </trkpt>
      <trkpt lat="59.994029780394" lon="15.829117651019">
        <ele>8907</ele>
        <time>2015-11-25T19:44:34Z</time>
        <extensions><gpxtpx:TrackPointExtension><gpxtpx:hr>148</gpxtpx:hr></gpxtpx:TrackPointExtension></extensions>
      </trkpt>
      <trkpt lat="59.994049310221" lon="15.828835180989">
        <ele>8907</ele>
        <time>2015-11-25T19:44:40Z</time>
        <extensions><gpxtpx:TrackPointExtension><gpxtpx:hr>147</gpxtpx:hr></gpxtpx:TrackPointExtension></extensions>
      </trkpt>
      <trkpt lat="59.994056518655" lon="15.828751613446">
        <ele>8907</ele>
        <time>2015-11-25T19:44:42Z</time>
        <extensions><gpxtpx:TrackPointExtension><gpxtpx:hr>148</gpxtpx:hr></gpxtpx:TrackPointExtension></extensions>
      </trkpt>
      <trkpt lat="59.994083173097" lon="15.828703249883">
        <ele>8907</ele>
        <time>2015-11-25T19:44:44Z</time>
        <extensions><gpxtpx:TrackPointExtension><gpxtpx:hr>148</gpxtpx:hr></gpxtpx:TrackPointExtension></extensions>
      </trkpt>
      <trkpt lat="59.994124076769" lon="15.828702830788">
        <ele>8907</ele>
        <time>2015-11-25T19:44:46Z</time>
        <extensions><gpxtpx:TrackPointExtension><gpxtpx:hr>148</gpxtpx:hr></gpxtpx:TrackPointExtension></extensions>
      </trkpt>
      <trkpt lat="59.994208985416" lon="15.828724204633">
        <ele>8907</ele>
        <time>2015-11-25T19:44:50Z</time>
        <extensions><gpxtpx:TrackPointExtension><gpxtpx:hr>149</gpxtpx:hr></gpxtpx:TrackPointExtension></extensions>
      </trkpt>
      <trkpt lat="59.994356255399" lon="15.828718672579">
        <ele>8907</ele>
        <time>2015-11-25T19:44:57Z</time>
        <extensions><gpxtpx:TrackPointExtension><gpxtpx:hr>149</gpxtpx:hr></gpxtpx:TrackPointExtension></extensions>
      </trkpt>
      <trkpt lat="59.994503441563" lon="15.828690006481">
        <ele>8907</ele>
        <time>2015-11-25T19:45:04Z</time>
        <extensions><gpxtpx:TrackPointExtension><gpxtpx:hr>149</gpxtpx:hr></gpxtpx:TrackPointExtension></extensions>
      </trkpt>
      <trkpt lat="59.994640737085" lon="15.828626136403">
        <ele>8907</ele>
        <time>2015-11-25T19:45:10Z</time>
        <extensions><gpxtpx:TrackPointExtension><gpxtpx:hr>149</gpxtpx:hr></gpxtpx:TrackPointExtension></extensions>
      </trkpt>
      <trkpt lat="59.994731093967" lon="15.828579365401">
        <ele>8907</ele>
        <time>2015-11-25T19:45:15Z</time>
        <extensions><gpxtpx:TrackPointExtension><gpxtpx:hr>149</gpxtpx:hr></gpxtpx:TrackPointExtension></extensions>
      </trkpt>
      <trkpt lat="59.994826060894" lon="15.82851909954">
        <ele>8907</ele>
        <time>2015-11-25T19:45:20Z</time>
        <extensions><gpxtpx:TrackPointExtension><gpxtpx:hr>149</gpxtpx:hr></gpxtpx:TrackPointExtension></extensions>
      </trkpt>
      <trkpt lat="59.994937456345" lon="15.828459336593">
        <ele>8907</ele>
        <time>2015-11-25T19:45:25Z</time>
        <extensions><gpxtpx:TrackPointExtension><gpxtpx:hr>149</gpxtpx:hr></gpxtpx:TrackPointExtension></extensions>
      </trkpt>
      <trkpt lat="59.995053126565" lon="15.828417510912">
        <ele>8907</ele>
        <time>2015-11-25T19:45:30Z</time>
        <extensions><gpxtpx:TrackPointExtension><gpxtpx:hr>148</gpxtpx:hr></gpxtpx:TrackPointExtension></extensions>
      </trkpt>
      <trkpt lat="59.995157816496" lon="15.828378786534">
        <ele>8907</ele>
        <time>2015-11-25T19:45:35Z</time>
        <extensions><gpxtpx:TrackPointExtension><gpxtpx:hr>146</gpxtpx:hr></gpxtpx:TrackPointExtension></extensions>
      </trkpt>
      <trkpt lat="59.995286311023" lon="15.828334865378">
        <ele>8907</ele>
        <time>2015-11-25T19:45:40Z</time>
        <extensions><gpxtpx:TrackPointExtension><gpxtpx:hr>145</gpxtpx:hr></gpxtpx:TrackPointExtension></extensions>
      </trkpt>
      <trkpt lat="59.995415727559" lon="15.828307540384">
        <ele>8907</ele>
        <time>2015-11-25T19:45:45Z</time>
        <extensions><gpxtpx:TrackPointExtension><gpxtpx:hr>145</gpxtpx:hr></gpxtpx:TrackPointExtension></extensions>
      </trkpt>
      <trkpt lat="59.995491835211" lon="15.828285076892">
        <ele>8907</ele>
        <time>2015-11-25T19:45:49Z</time>
        <extensions><gpxtpx:TrackPointExtension><gpxtpx:hr>144</gpxtpx:hr></gpxtpx:TrackPointExtension></extensions>
      </trkpt>
      <trkpt lat="59.995658132107" lon="15.828298990846">
        <ele>8907</ele>
        <time>2015-11-25T19:45:56Z</time>
        <extensions><gpxtpx:TrackPointExtension><gpxtpx:hr>144</gpxtpx:hr></gpxtpx:TrackPointExtension></extensions>
      </trkpt>
      <trkpt lat="59.995838845871" lon="15.828373841213">
        <ele>8907</ele>
        <time>2015-11-25T19:46:04Z</time>
        <extensions><gpxtpx:TrackPointExtension><gpxtpx:hr>143</gpxtpx:hr></gpxtpx:TrackPointExtension></extensions>
      </trkpt>
      <trkpt lat="59.995988295148" lon="15.82845623529">
        <ele>8907</ele>
        <time>2015-11-25T19:46:11Z</time>
        <extensions><gpxtpx:TrackPointExtension><gpxtpx:hr>142</gpxtpx:hr></gpxtpx:TrackPointExtension></extensions>
      </trkpt>
      <trkpt lat="59.996143863212" lon="15.828573749528">
        <ele>8907</ele>
        <time>2015-11-25T19:46:18Z</time>
        <extensions><gpxtpx:TrackPointExtension><gpxtpx:hr>141</gpxtpx:hr></gpxtpx:TrackPointExtension></extensions>
      </trkpt>
      <trkpt lat="59.996271938644" lon="15.828646336782">
        <ele>8907</ele>
        <time>2015-11-25T19:46:24Z</time>
        <extensions><gpxtpx:TrackPointExtension><gpxtpx:hr>142</gpxtpx:hr></gpxtpx:TrackPointExtension></extensions>
      </trkpt>
      <trkpt lat="59.99643488278" lon="15.828762007002">
        <ele>8907</ele>
        <time>2015-11-25T19:46:31Z</time>
        <extensions><gpxtpx:TrackPointExtension><gpxtpx:hr>142</gpxtpx:hr></gpxtpx:TrackPointExtension></extensions>
      </trkpt>
      <trkpt lat="59.996565221325" lon="15.828840545405">
        <ele>8907</ele>
        <time>2015-11-25T19:46:37Z</time>
        <extensions><gpxtpx:TrackPointExtension><gpxtpx:hr>142</gpxtpx:hr></gpxtpx:TrackPointExtension></extensions>
      </trkpt>
      <trkpt lat="59.996682316468" lon="15.828926124604">
        <ele>8907</ele>
        <time>2015-11-25T19:46:43Z</time>
        <extensions><gpxtpx:TrackPointExtension><gpxtpx:hr>142</gpxtpx:hr></gpxtpx:TrackPointExtension></extensions>
      </trkpt>
      <trkpt lat="59.996853642504" lon="15.82902955725">
        <ele>8907</ele>
        <time>2015-11-25T19:46:50Z</time>
        <extensions><gpxtpx:TrackPointExtension><gpxtpx:hr>143</gpxtpx:hr></gpxtpx:TrackPointExtension></extensions>
      </trkpt>
      <trkpt lat="59.997014323527" lon="15.829115220268">
        <ele>8907</ele>
        <time>2015-11-25T19:46:57Z</time>
        <extensions><gpxtpx:TrackPointExtension><gpxtpx:hr>143</gpxtpx:hr></gpxtpx:TrackPointExtension></extensions>
      </trkpt>
      <trkpt lat="59.997150110307" lon="15.829143886366">
        <ele>8907</ele>
        <time>2015-11-25T19:47:03Z</time>
        <extensions><gpxtpx:TrackPointExtension><gpxtpx:hr>143</gpxtpx:hr></gpxtpx:TrackPointExtension></extensions>
      </trkpt>
      <trkpt lat="59.997276844635" lon="15.829226950995">
        <ele>8907</ele>
        <time>2015-11-25T19:47:09Z</time>
        <extensions><gpxtpx:TrackPointExtension><gpxtpx:hr>142</gpxtpx:hr></gpxtpx:TrackPointExtension></extensions>
      </trkpt>
      <trkpt lat="59.997404920067" lon="15.829322839931">
        <ele>8907</ele>
        <time>2015-11-25T19:47:15Z</time>
        <extensions><gpxtpx:TrackPointExtension><gpxtpx:hr>140</gpxtpx:hr></gpxtpx:TrackPointExtension></extensions>
      </trkpt>
      <trkpt lat="59.997499886994" lon="15.829441695273">
        <ele>8907</ele>
        <time>2015-11-25T19:47:20Z</time>
        <extensions><gpxtpx:TrackPointExtension><gpxtpx:hr>139</gpxtpx:hr></gpxtpx:TrackPointExtension></extensions>
      </trkpt>
      <trkpt lat="59.997621424544" lon="15.829704970752">
        <ele>8907</ele>
        <time>2015-11-25T19:47:27Z</time>
        <extensions><gpxtpx:TrackPointExtension><gpxtpx:hr>138</gpxtpx:hr></gpxtpx:TrackPointExtension></extensions>
      </trkpt>
      <trkpt lat="59.997738938782" lon="15.829930192405">
        <ele>8907</ele>
        <time>2015-11-25T19:47:34Z</time>
        <extensions><gpxtpx:TrackPointExtension><gpxtpx:hr>137</gpxtpx:hr></gpxtpx:TrackPointExtension></extensions>
      </trkpt>
      <trkpt lat="59.997848238758" lon="15.829975789941">
        <ele>8907</ele>
        <time>2015-11-25T19:47:39Z</time>
        <extensions><gpxtpx:TrackPointExtension><gpxtpx:hr>135</gpxtpx:hr></gpxtpx:TrackPointExtension></extensions>
      </trkpt>
      <trkpt lat="59.997977068561" lon="15.83005131086">
        <ele>8907</ele>
        <time>2015-11-25T19:47:45Z</time>
        <extensions><gpxtpx:TrackPointExtension><gpxtpx:hr>134</gpxtpx:hr></gpxtpx:TrackPointExtension></extensions>
      </trkpt>
      <trkpt lat="59.998070778203" lon="15.830138063525">
        <ele>8907</ele>
        <time>2015-11-25T19:47:50Z</time>
        <extensions><gpxtpx:TrackPointExtension><gpxtpx:hr>135</gpxtpx:hr></gpxtpx:TrackPointExtension></extensions>
      </trkpt>
      <trkpt lat="59.998178485618" lon="15.830224145638">
        <ele>8907</ele>
        <time>2015-11-25T19:47:56Z</time>
        <extensions><gpxtpx:TrackPointExtension><gpxtpx:hr>135</gpxtpx:hr></gpxtpx:TrackPointExtension></extensions>
      </trkpt>
      <trkpt lat="59.998313350389" lon="15.830311401217">
        <ele>8907</ele>
        <time>2015-11-25T19:48:02Z</time>
        <extensions><gpxtpx:TrackPointExtension><gpxtpx:hr>135</gpxtpx:hr></gpxtpx:TrackPointExtension></extensions>
      </trkpt>
      <trkpt lat="59.998445365314" lon="15.830392957104">
        <ele>8907</ele>
        <time>2015-11-25T19:48:08Z</time>
        <extensions><gpxtpx:TrackPointExtension><gpxtpx:hr>136</gpxtpx:hr></gpxtpx:TrackPointExtension></extensions>
      </trkpt>
      <trkpt lat="59.998558688602" lon="15.830407122515">
        <ele>8907</ele>
        <time>2015-11-25T19:48:13Z</time>
        <extensions><gpxtpx:TrackPointExtension><gpxtpx:hr>135</gpxtpx:hr></gpxtpx:TrackPointExtension></extensions>
      </trkpt>
      <trkpt lat="59.998598418808" lon="15.830247112044">
        <ele>8907</ele>
        <time>2015-11-25T19:48:17Z</time>
        <extensions><gpxtpx:TrackPointExtension><gpxtpx:hr>135</gpxtpx:hr></gpxtpx:TrackPointExtension></extensions>
      </trkpt>
      <trkpt lat="59.998602190663" lon="15.830195982454">
        <ele>8907</ele>
        <time>2015-11-25T19:48:18Z</time>
        <extensions><gpxtpx:TrackPointExtension><gpxtpx:hr>136</gpxtpx:hr></gpxtpx:TrackPointExtension></extensions>
      </trkpt>
      <trkpt lat="59.998617026626" lon="15.829983920384">
        <ele>8907</ele>
        <time>2015-11-25T19:48:23Z</time>
        <extensions><gpxtpx:TrackPointExtension><gpxtpx:hr>135</gpxtpx:hr></gpxtpx:TrackPointExtension></extensions>
      </trkpt>
      <trkpt lat="59.998620798481" lon="15.829640681579">
        <ele>8907</ele>
        <time>2015-11-25T19:48:30Z</time>
        <extensions><gpxtpx:TrackPointExtension><gpxtpx:hr>136</gpxtpx:hr></gpxtpx:TrackPointExtension></extensions>
      </trkpt>
      <trkpt lat="59.998624067422" lon="15.829299622068">
        <ele>8907</ele>
        <time>2015-11-25T19:48:37Z</time>
        <extensions><gpxtpx:TrackPointExtension><gpxtpx:hr>137</gpxtpx:hr></gpxtpx:TrackPointExtension></extensions>
      </trkpt>
      <trkpt lat="59.998627252544" lon="15.829018744599">
        <ele>8907</ele>
        <time>2015-11-25T19:48:43Z</time>
        <extensions><gpxtpx:TrackPointExtension><gpxtpx:hr>138</gpxtpx:hr></gpxtpx:TrackPointExtension></extensions>
      </trkpt>
      <trkpt lat="59.998644603077" lon="15.82863225519">
        <ele>8907</ele>
        <time>2015-11-25T19:48:51Z</time>
        <extensions><gpxtpx:TrackPointExtension><gpxtpx:hr>138</gpxtpx:hr></gpxtpx:TrackPointExtension></extensions>
      </trkpt>
      <trkpt lat="59.998693469554" lon="15.828363363838">
        <ele>8907</ele>
        <time>2015-11-25T19:48:57Z</time>
        <extensions><gpxtpx:TrackPointExtension><gpxtpx:hr>138</gpxtpx:hr></gpxtpx:TrackPointExtension></extensions>
      </trkpt>
      <trkpt lat="59.998697744323" lon="15.828154235433">
        <ele>8907</ele>
        <time>2015-11-25T19:49:02Z</time>
        <extensions><gpxtpx:TrackPointExtension><gpxtpx:hr>139</gpxtpx:hr></gpxtpx:TrackPointExtension></extensions>
      </trkpt>
      <trkpt lat="59.99869967216" lon="15.827858689639">
        <ele>8907</ele>
        <time>2015-11-25T19:49:08Z</time>
        <extensions><gpxtpx:TrackPointExtension><gpxtpx:hr>140</gpxtpx:hr></gpxtpx:TrackPointExtension></extensions>
      </trkpt>
      <trkpt lat="59.998704114567" lon="15.827555600135">
        <ele>8907</ele>
        <time>2015-11-25T19:49:14Z</time>
        <extensions><gpxtpx:TrackPointExtension><gpxtpx:hr>140</gpxtpx:hr></gpxtpx:TrackPointExtension></extensions>
      </trkpt>
      <trkpt lat="59.998703611653" lon="15.827315961614">
        <ele>8907</ele>
        <time>2015-11-25T19:49:19Z</time>
        <extensions><gpxtpx:TrackPointExtension><gpxtpx:hr>140</gpxtpx:hr></gpxtpx:TrackPointExtension></extensions>
      </trkpt>
      <trkpt lat="59.998727835344" lon="15.827053356687">
        <ele>8907</ele>
        <time>2015-11-25T19:49:25Z</time>
        <extensions><gpxtpx:TrackPointExtension><gpxtpx:hr>140</gpxtpx:hr></gpxtpx:TrackPointExtension></extensions>
      </trkpt>
      <trkpt lat="59.998799500589" lon="15.827041202932">
        <ele>8907</ele>
        <time>2015-11-25T19:49:29Z</time>
        <extensions><gpxtpx:TrackPointExtension><gpxtpx:hr>140</gpxtpx:hr></gpxtpx:TrackPointExtension></extensions>
      </trkpt>
      <trkpt lat="59.99898465676" lon="15.82700951935">
        <ele>8907</ele>
        <time>2015-11-25T19:49:37Z</time>
        <extensions><gpxtpx:TrackPointExtension><gpxtpx:hr>140</gpxtpx:hr></gpxtpx:TrackPointExtension></extensions>
      </trkpt>
      <trkpt lat="59.999114911486" lon="15.826909858559">
        <ele>8907</ele>
        <time>2015-11-25T19:49:44Z</time>
        <extensions><gpxtpx:TrackPointExtension><gpxtpx:hr>139</gpxtpx:hr></gpxtpx:TrackPointExtension></extensions>
      </trkpt>
      <trkpt lat="59.999215829562" lon="15.826801983506">
        <ele>8907</ele>
        <time>2015-11-25T19:49:49Z</time>
        <extensions><gpxtpx:TrackPointExtension><gpxtpx:hr>139</gpxtpx:hr></gpxtpx:TrackPointExtension></extensions>
      </trkpt>
      <trkpt lat="59.999322614968" lon="15.826649265288">
        <ele>8907</ele>
        <time>2015-11-25T19:49:55Z</time>
        <extensions><gpxtpx:TrackPointExtension><gpxtpx:hr>141</gpxtpx:hr></gpxtpx:TrackPointExtension></extensions>
      </trkpt>
      <trkpt lat="59.999442727595" lon="15.826400658134">
        <ele>8907</ele>
        <time>2015-11-25T19:50:03Z</time>
        <extensions><gpxtpx:TrackPointExtension><gpxtpx:hr>144</gpxtpx:hr></gpxtpx:TrackPointExtension></extensions>
      </trkpt>
      <trkpt lat="59.999539119445" lon="15.826191362091">
        <ele>8907</ele>
        <time>2015-11-25T19:50:09Z</time>
        <extensions><gpxtpx:TrackPointExtension><gpxtpx:hr>145</gpxtpx:hr></gpxtpx:TrackPointExtension></extensions>
      </trkpt>
      <trkpt lat="59.999637690589" lon="15.825981982229">
        <ele>8907</ele>
        <time>2015-11-25T19:50:15Z</time>
        <extensions><gpxtpx:TrackPointExtension><gpxtpx:hr>146</gpxtpx:hr></gpxtpx:TrackPointExtension></extensions>
      </trkpt>
      <trkpt lat="59.999729388575" lon="15.825765813028">
        <ele>8907</ele>
        <time>2015-11-25T19:50:21Z</time>
        <extensions><gpxtpx:TrackPointExtension><gpxtpx:hr>146</gpxtpx:hr></gpxtpx:TrackPointExtension></extensions>
      </trkpt>
      <trkpt lat="59.999814632498" lon="15.825503627196">
        <ele>8907</ele>
        <time>2015-11-25T19:50:28Z</time>
        <extensions><gpxtpx:TrackPointExtension><gpxtpx:hr>146</gpxtpx:hr></gpxtpx:TrackPointExtension></extensions>
      </trkpt>
      <trkpt lat="59.999855033256" lon="15.825247224875">
        <ele>8907</ele>
        <time>2015-11-25T19:50:34Z</time>
        <extensions><gpxtpx:TrackPointExtension><gpxtpx:hr>147</gpxtpx:hr></gpxtpx:TrackPointExtension></extensions>
      </trkpt>
      <trkpt lat="59.999884621363" lon="15.824995684056">
        <ele>8907</ele>
        <time>2015-11-25T19:50:40Z</time>
        <extensions><gpxtpx:TrackPointExtension><gpxtpx:hr>147</gpxtpx:hr></gpxtpx:TrackPointExtension></extensions>
      </trkpt>
      <trkpt lat="59.999888728494" lon="15.824768953661">
        <ele>8907</ele>
        <time>2015-11-25T19:50:45Z</time>
        <extensions><gpxtpx:TrackPointExtension><gpxtpx:hr>148</gpxtpx:hr></gpxtpx:TrackPointExtension></extensions>
      </trkpt>
      <trkpt lat="59.999884705182" lon="15.824542809999">
        <ele>8907</ele>
        <time>2015-11-25T19:50:50Z</time>
        <extensions><gpxtpx:TrackPointExtension><gpxtpx:hr>149</gpxtpx:hr></gpxtpx:TrackPointExtension></extensions>
      </trkpt>
      <trkpt lat="59.999891913616" lon="15.824291101542">
        <ele>8907</ele>
        <time>2015-11-25T19:50:56Z</time>
        <extensions><gpxtpx:TrackPointExtension><gpxtpx:hr>150</gpxtpx:hr></gpxtpx:TrackPointExtension></extensions>
      </trkpt>
      <trkpt lat="59.999903061543" lon="15.823947862737">
        <ele>8907</ele>
        <time>2015-11-25T19:51:04Z</time>
        <extensions><gpxtpx:TrackPointExtension><gpxtpx:hr>149</gpxtpx:hr></gpxtpx:TrackPointExtension></extensions>
      </trkpt>
      <trkpt lat="59.999934242211" lon="15.823604707751">
        <ele>8907</ele>
        <time>2015-11-25T19:51:12Z</time>
        <extensions><gpxtpx:TrackPointExtension><gpxtpx:hr>148</gpxtpx:hr></gpxtpx:TrackPointExtension></extensions>
      </trkpt>
      <trkpt lat="59.999959304092" lon="15.823333972381">
        <ele>8907</ele>
        <time>2015-11-25T19:51:18Z</time>
        <extensions><gpxtpx:TrackPointExtension><gpxtpx:hr>147</gpxtpx:hr></gpxtpx:TrackPointExtension></extensions>
      </trkpt>
      <trkpt lat="59.999988305466" lon="15.823026691927">
        <ele>8907</ele>
        <time>2015-11-25T19:51:25Z</time>
        <extensions><gpxtpx:TrackPointExtension><gpxtpx:hr>146</gpxtpx:hr></gpxtpx:TrackPointExtension></extensions>
      </trkpt>
      <trkpt lat="60.000004817809" lon="15.822711951582">
        <ele>8907</ele>
        <time>2015-11-25T19:51:32Z</time>
        <extensions><gpxtpx:TrackPointExtension><gpxtpx:hr>146</gpxtpx:hr></gpxtpx:TrackPointExtension></extensions>
      </trkpt>
      <trkpt lat="60.000006242732" lon="15.822388410242">
        <ele>8907</ele>
        <time>2015-11-25T19:51:39Z</time>
        <extensions><gpxtpx:TrackPointExtension><gpxtpx:hr>146</gpxtpx:hr></gpxtpx:TrackPointExtension></extensions>
      </trkpt>
      <trkpt lat="60.000002973791" lon="15.822108454782">
        <ele>8907</ele>
        <time>2015-11-25T19:51:45Z</time>
        <extensions><gpxtpx:TrackPointExtension><gpxtpx:hr>146</gpxtpx:hr></gpxtpx:TrackPointExtension></extensions>
      </trkpt>
      <trkpt lat="59.999987467276" lon="15.821836378308">
        <ele>8907</ele>
        <time>2015-11-25T19:51:51Z</time>
        <extensions><gpxtpx:TrackPointExtension><gpxtpx:hr>144</gpxtpx:hr></gpxtpx:TrackPointExtension></extensions>
      </trkpt>
      <trkpt lat="59.999983276326" lon="15.821556590486">
        <ele>8907</ele>
        <time>2015-11-25T19:51:57Z</time>
        <extensions><gpxtpx:TrackPointExtension><gpxtpx:hr>144</gpxtpx:hr></gpxtpx:TrackPointExtension></extensions>
      </trkpt>
      <trkpt lat="60.000011607148" lon="15.821249812946">
        <ele>8907</ele>
        <time>2015-11-25T19:52:04Z</time>
        <extensions><gpxtpx:TrackPointExtension><gpxtpx:hr>143</gpxtpx:hr></gpxtpx:TrackPointExtension></extensions>
      </trkpt>
      <trkpt lat="60.000078829986" lon="15.820996595747">
        <ele>8907</ele>
        <time>2015-11-25T19:52:10Z</time>
        <extensions><gpxtpx:TrackPointExtension><gpxtpx:hr>144</gpxtpx:hr></gpxtpx:TrackPointExtension></extensions>
      </trkpt>
      <trkpt lat="60.000162481348" lon="15.820760896719">
        <ele>8907</ele>
        <time>2015-11-25T19:52:16Z</time>
        <extensions><gpxtpx:TrackPointExtension><gpxtpx:hr>146</gpxtpx:hr></gpxtpx:TrackPointExtension></extensions>
      </trkpt>
      <trkpt lat="60.000230961471" lon="15.820515307049">
        <ele>8907</ele>
        <time>2015-11-25T19:52:22Z</time>
        <extensions><gpxtpx:TrackPointExtension><gpxtpx:hr>147</gpxtpx:hr></gpxtpx:TrackPointExtension></extensions>
      </trkpt>
      <trkpt lat="60.000215203499" lon="15.820299724581">
        <ele>8907</ele>
        <time>2015-11-25T19:52:27Z</time>
        <extensions><gpxtpx:TrackPointExtension><gpxtpx:hr>147</gpxtpx:hr></gpxtpx:TrackPointExtension></extensions>
      </trkpt>
      <trkpt lat="60.000161559339" lon="15.820052961445">
        <ele>8907</ele>
        <time>2015-11-25T19:52:33Z</time>
        <extensions><gpxtpx:TrackPointExtension><gpxtpx:hr>148</gpxtpx:hr></gpxtpx:TrackPointExtension></extensions>
      </trkpt>
      <trkpt lat="60.000146471919" lon="15.819828829439">
        <ele>8907</ele>
        <time>2015-11-25T19:52:38Z</time>
        <extensions><gpxtpx:TrackPointExtension><gpxtpx:hr>149</gpxtpx:hr></gpxtpx:TrackPointExtension></extensions>
      </trkpt>
      <trkpt lat="60.000198439699" lon="15.81955717206">
        <ele>8907</ele>
        <time>2015-11-25T19:52:44Z</time>
        <extensions><gpxtpx:TrackPointExtension><gpxtpx:hr>149</gpxtpx:hr></gpxtpx:TrackPointExtension></extensions>
      </trkpt>
      <trkpt lat="60.000295502101" lon="15.819473269241">
        <ele>8907</ele>
        <time>2015-11-25T19:52:49Z</time>
        <extensions><gpxtpx:TrackPointExtension><gpxtpx:hr>149</gpxtpx:hr></gpxtpx:TrackPointExtension></extensions>
      </trkpt>
      <trkpt lat="60.00039616872" lon="15.81951107161">
        <ele>8907</ele>
        <time>2015-11-25T19:52:54Z</time>
        <extensions><gpxtpx:TrackPointExtension><gpxtpx:hr>149</gpxtpx:hr></gpxtpx:TrackPointExtension></extensions>
      </trkpt>
      <trkpt lat="60.00050932437" lon="15.81954208464">
        <ele>8907</ele>
        <time>2015-11-25T19:52:59Z</time>
        <extensions><gpxtpx:TrackPointExtension><gpxtpx:hr>149</gpxtpx:hr></gpxtpx:TrackPointExtension></extensions>
      </trkpt>
      <trkpt lat="60.000625748961" lon="15.819551137092">
        <ele>8907</ele>
        <time>2015-11-25T19:53:04Z</time>
        <extensions><gpxtpx:TrackPointExtension><gpxtpx:hr>149</gpxtpx:hr></gpxtpx:TrackPointExtension></extensions>
      </trkpt>
      <trkpt lat="60.000776790799" lon="15.819535714396">
        <ele>8907</ele>
        <time>2015-11-25T19:53:11Z</time>
        <extensions><gpxtpx:TrackPointExtension><gpxtpx:hr>149</gpxtpx:hr></gpxtpx:TrackPointExtension></extensions>
      </trkpt>
      <trkpt lat="60.00093344851" lon="15.819513753818">
        <ele>8907</ele>
        <time>2015-11-25T19:53:18Z</time>
        <extensions><gpxtpx:TrackPointExtension><gpxtpx:hr>150</gpxtpx:hr></gpxtpx:TrackPointExtension></extensions>
      </trkpt>
      <trkpt lat="60.00107007348" lon="15.819503779357">
        <ele>8907</ele>
        <time>2015-11-25T19:53:24Z</time>
        <extensions><gpxtpx:TrackPointExtension><gpxtpx:hr>151</gpxtpx:hr></gpxtpx:TrackPointExtension></extensions>
      </trkpt>
      <trkpt lat="60.001225809182" lon="15.819521381347">
        <ele>8907</ele>
        <time>2015-11-25T19:53:31Z</time>
        <extensions><gpxtpx:TrackPointExtension><gpxtpx:hr>153</gpxtpx:hr></gpxtpx:TrackPointExtension></extensions>
      </trkpt>
      <trkpt lat="60.001369977862" lon="15.81954711378">
        <ele>8907</ele>
        <time>2015-11-25T19:53:37Z</time>
        <extensions><gpxtpx:TrackPointExtension><gpxtpx:hr>152</gpxtpx:hr></gpxtpx:TrackPointExtension></extensions>
      </trkpt>
      <trkpt lat="60.001523618089" lon="15.819604529795">
        <ele>8907</ele>
        <time>2015-11-25T19:53:44Z</time>
        <extensions><gpxtpx:TrackPointExtension><gpxtpx:hr>151</gpxtpx:hr></gpxtpx:TrackPointExtension></extensions>
      </trkpt>
      <trkpt lat="60.001634929721" lon="15.81966697495">
        <ele>8907</ele>
        <time>2015-11-25T19:53:49Z</time>
        <extensions><gpxtpx:TrackPointExtension><gpxtpx:hr>151</gpxtpx:hr></gpxtpx:TrackPointExtension></extensions>
      </trkpt>
      <trkpt lat="60.001759736212" lon="15.819756912737">
        <ele>8907</ele>
        <time>2015-11-25T19:53:55Z</time>
        <extensions><gpxtpx:TrackPointExtension><gpxtpx:hr>150</gpxtpx:hr></gpxtpx:TrackPointExtension></extensions>
      </trkpt>
      <trkpt lat="60.001884291246" lon="15.819858333727">
        <ele>8907</ele>
        <time>2015-11-25T19:54:01Z</time>
        <extensions><gpxtpx:TrackPointExtension><gpxtpx:hr>151</gpxtpx:hr></gpxtpx:TrackPointExtension></extensions>
      </trkpt>
      <trkpt lat="60.002009433013" lon="15.819981547657">
        <ele>8907</ele>
        <time>2015-11-25T19:54:07Z</time>
        <extensions><gpxtpx:TrackPointExtension><gpxtpx:hr>152</gpxtpx:hr></gpxtpx:TrackPointExtension></extensions>
      </trkpt>
      <trkpt lat="60.002134323323" lon="15.820117166799">
        <ele>8907</ele>
        <time>2015-11-25T19:54:13Z</time>
        <extensions><gpxtpx:TrackPointExtension><gpxtpx:hr>151</gpxtpx:hr></gpxtpx:TrackPointExtension></extensions>
      </trkpt>
      <trkpt lat="60.002245383498" lon="15.820280362392">
        <ele>8907</ele>
        <time>2015-11-25T19:54:19Z</time>
        <extensions><gpxtpx:TrackPointExtension><gpxtpx:hr>152</gpxtpx:hr></gpxtpx:TrackPointExtension></extensions>
      </trkpt>
      <trkpt lat="60.002392988757" lon="15.820484042562">
        <ele>8907</ele>
        <time>2015-11-25T19:54:26Z</time>
        <extensions><gpxtpx:TrackPointExtension><gpxtpx:hr>151</gpxtpx:hr></gpxtpx:TrackPointExtension></extensions>
      </trkpt>
      <trkpt lat="60.002524668406" lon="15.820660146281">
        <ele>8907</ele>
        <time>2015-11-25T19:54:33Z</time>
        <extensions><gpxtpx:TrackPointExtension><gpxtpx:hr>150</gpxtpx:hr></gpxtpx:TrackPointExtension></extensions>
      </trkpt>
      <trkpt lat="60.002642937015" lon="15.820750922258">
        <ele>8907</ele>
        <time>2015-11-25T19:54:39Z</time>
        <extensions><gpxtpx:TrackPointExtension><gpxtpx:hr>149</gpxtpx:hr></gpxtpx:TrackPointExtension></extensions>
      </trkpt>
      <trkpt lat="60.002803869495" lon="15.82080858973">
        <ele>8907</ele>
        <time>2015-11-25T19:54:46Z</time>
        <extensions><gpxtpx:TrackPointExtension><gpxtpx:hr>149</gpxtpx:hr></gpxtpx:TrackPointExtension></extensions>
      </trkpt>
      <trkpt lat="60.002931861108" lon="15.820865921926">
        <ele>8907</ele>
        <time>2015-11-25T19:54:52Z</time>
        <extensions><gpxtpx:TrackPointExtension><gpxtpx:hr>147</gpxtpx:hr></gpxtpx:TrackPointExtension></extensions>
      </trkpt>
      <trkpt lat="60.003083573498" lon="15.820911100367">
        <ele>8907</ele>
        <time>2015-11-25T19:54:59Z</time>
        <extensions><gpxtpx:TrackPointExtension><gpxtpx:hr>147</gpxtpx:hr></gpxtpx:TrackPointExtension></extensions>
      </trkpt>
      <trkpt lat="60.003202847935" lon="15.82096784583">
        <ele>8907</ele>
        <time>2015-11-25T19:55:04Z</time>
        <extensions><gpxtpx:TrackPointExtension><gpxtpx:hr>147</gpxtpx:hr></gpxtpx:TrackPointExtension></extensions>
      </trkpt>
      <trkpt lat="60.003340227276" lon="15.821034146659">
        <ele>8907</ele>
        <time>2015-11-25T19:55:10Z</time>
        <extensions><gpxtpx:TrackPointExtension><gpxtpx:hr>147</gpxtpx:hr></gpxtpx:TrackPointExtension></extensions>
      </trkpt>
      <trkpt lat="60.003445671578" lon="15.821100363669">
        <ele>8907</ele>
        <time>2015-11-25T19:55:15Z</time>
        <extensions><gpxtpx:TrackPointExtension><gpxtpx:hr>147</gpxtpx:hr></gpxtpx:TrackPointExtension></extensions>
      </trkpt>
      <trkpt lat="60.003576177761" lon="15.821160880987">
        <ele>8907</ele>
        <time>2015-11-25T19:55:21Z</time>
        <extensions><gpxtpx:TrackPointExtension><gpxtpx:hr>148</gpxtpx:hr></gpxtpx:TrackPointExtension></extensions>
      </trkpt>
      <trkpt lat="60.003674245991" lon="15.821329357177">
        <ele>8907</ele>
        <time>2015-11-25T19:55:27Z</time>
        <extensions><gpxtpx:TrackPointExtension><gpxtpx:hr>147</gpxtpx:hr></gpxtpx:TrackPointExtension></extensions>
      </trkpt>
      <trkpt lat="60.003775918438" lon="15.821596991244">
        <ele>8907</ele>
        <time>2015-11-25T19:55:34Z</time>
        <extensions><gpxtpx:TrackPointExtension><gpxtpx:hr>147</gpxtpx:hr></gpxtpx:TrackPointExtension></extensions>
      </trkpt>
      <trkpt lat="60.003872561745" lon="15.821844760208">
        <ele>8907</ele>
        <time>2015-11-25T19:55:40Z</time>
        <extensions><gpxtpx:TrackPointExtension><gpxtpx:hr>148</gpxtpx:hr></gpxtpx:TrackPointExtension></extensions>
      </trkpt>
      <trkpt lat="60.003946993017" lon="15.822022707945">
        <ele>8907</ele>
        <time>2015-11-25T19:55:45Z</time>
        <extensions><gpxtpx:TrackPointExtension><gpxtpx:hr>149</gpxtpx:hr></gpxtpx:TrackPointExtension></extensions>
      </trkpt>
      <trkpt lat="60.004031650207" lon="15.822225047011">
        <ele>8907</ele>
        <time>2015-11-25T19:55:51Z</time>
        <extensions><gpxtpx:TrackPointExtension><gpxtpx:hr>150</gpxtpx:hr></gpxtpx:TrackPointExtension></extensions>
      </trkpt>
      <trkpt lat="60.004125192211" lon="15.822450855397">
        <ele>8907</ele>
        <time>2015-11-25T19:55:57Z</time>
        <extensions><gpxtpx:TrackPointExtension><gpxtpx:hr>150</gpxtpx:hr></gpxtpx:TrackPointExtension></extensions>
      </trkpt>
      <trkpt lat="60.004213118342" lon="15.822651937178">
        <ele>8907</ele>
        <time>2015-11-25T19:56:03Z</time>
        <extensions><gpxtpx:TrackPointExtension><gpxtpx:hr>151</gpxtpx:hr></gpxtpx:TrackPointExtension></extensions>
      </trkpt>
      <trkpt lat="60.00430464869" lon="15.82286886075">
        <ele>8907</ele>
        <time>2015-11-25T19:56:09Z</time>
        <extensions><gpxtpx:TrackPointExtension><gpxtpx:hr>151</gpxtpx:hr></gpxtpx:TrackPointExtension></extensions>
      </trkpt>
      <trkpt lat="60.004370446605" lon="15.823038258949">
        <ele>8907</ele>
        <time>2015-11-25T19:56:14Z</time>
        <extensions><gpxtpx:TrackPointExtension><gpxtpx:hr>151</gpxtpx:hr></gpxtpx:TrackPointExtension></extensions>
      </trkpt>
      <trkpt lat="60.004447811542" lon="15.823229450088">
        <ele>8907</ele>
        <time>2015-11-25T19:56:19Z</time>
        <extensions><gpxtpx:TrackPointExtension><gpxtpx:hr>151</gpxtpx:hr></gpxtpx:TrackPointExtension></extensions>
      </trkpt>
      <trkpt lat="60.004547556152" lon="15.82346565203">
        <ele>8907</ele>
        <time>2015-11-25T19:56:25Z</time>
        <extensions><gpxtpx:TrackPointExtension><gpxtpx:hr>153</gpxtpx:hr></gpxtpx:TrackPointExtension></extensions>
      </trkpt>
      <trkpt lat="60.00462902822" lon="15.823676372996">
        <ele>8907</ele>
        <time>2015-11-25T19:56:31Z</time>
        <extensions><gpxtpx:TrackPointExtension><gpxtpx:hr>153</gpxtpx:hr></gpxtpx:TrackPointExtension></extensions>
      </trkpt>
      <trkpt lat="60.004726174441" lon="15.823897990432">
        <ele>8907</ele>
        <time>2015-11-25T19:56:37Z</time>
        <extensions><gpxtpx:TrackPointExtension><gpxtpx:hr>153</gpxtpx:hr></gpxtpx:TrackPointExtension></extensions>
      </trkpt>
      <trkpt lat="60.004844191593" lon="15.824135533478">
        <ele>8907</ele>
        <time>2015-11-25T19:56:44Z</time>
        <extensions><gpxtpx:TrackPointExtension><gpxtpx:hr>153</gpxtpx:hr></gpxtpx:TrackPointExtension></extensions>
      </trkpt>
      <trkpt lat="60.004968243713" lon="15.824316582518">
        <ele>8907</ele>
        <time>2015-11-25T19:56:51Z</time>
        <extensions><gpxtpx:TrackPointExtension><gpxtpx:hr>154</gpxtpx:hr></gpxtpx:TrackPointExtension></extensions>
      </trkpt>
      <trkpt lat="60.005066228124" lon="15.824490506943">
        <ele>8907</ele>
        <time>2015-11-25T19:56:56Z</time>
        <extensions><gpxtpx:TrackPointExtension><gpxtpx:hr>153</gpxtpx:hr></gpxtpx:TrackPointExtension></extensions>
      </trkpt>
      <trkpt lat="60.005155076264" lon="15.824733330586">
        <ele>8907</ele>
        <time>2015-11-25T19:57:02Z</time>
        <extensions><gpxtpx:TrackPointExtension><gpxtpx:hr>153</gpxtpx:hr></gpxtpx:TrackPointExtension></extensions>
      </trkpt>
      <trkpt lat="60.00523923054" lon="15.824975735134">
        <ele>8907</ele>
        <time>2015-11-25T19:57:08Z</time>
        <extensions><gpxtpx:TrackPointExtension><gpxtpx:hr>152</gpxtpx:hr></gpxtpx:TrackPointExtension></extensions>
      </trkpt>
      <trkpt lat="60.005306956292" lon="15.825214786922">
        <ele>8907</ele>
        <time>2015-11-25T19:57:14Z</time>
        <extensions><gpxtpx:TrackPointExtension><gpxtpx:hr>153</gpxtpx:hr></gpxtpx:TrackPointExtension></extensions>
      </trkpt>
      <trkpt lat="60.005380549374" lon="15.825375719402">
        <ele>8907</ele>
        <time>2015-11-25T19:57:19Z</time>
        <extensions><gpxtpx:TrackPointExtension><gpxtpx:hr>153</gpxtpx:hr></gpxtpx:TrackPointExtension></extensions>
      </trkpt>
      <trkpt lat="60.00548901116" lon="15.825418299454">
        <ele>8907</ele>
        <time>2015-11-25T19:57:24Z</time>
        <extensions><gpxtpx:TrackPointExtension><gpxtpx:hr>153</gpxtpx:hr></gpxtpx:TrackPointExtension></extensions>
      </trkpt>
      <trkpt lat="60.005619601162" lon="15.825403212034">
        <ele>8907</ele>
        <time>2015-11-25T19:57:30Z</time>
        <extensions><gpxtpx:TrackPointExtension><gpxtpx:hr>155</gpxtpx:hr></gpxtpx:TrackPointExtension></extensions>
      </trkpt>
      <trkpt lat="60.005752370458" lon="15.825391058279">
        <ele>8907</ele>
        <time>2015-11-25T19:57:36Z</time>
        <extensions><gpxtpx:TrackPointExtension><gpxtpx:hr>155</gpxtpx:hr></gpxtpx:TrackPointExtension></extensions>
      </trkpt>
      <trkpt lat="60.005834596897" lon="15.825370354986">
        <ele>8907</ele>
        <time>2015-11-25T19:57:40Z</time>
        <extensions><gpxtpx:TrackPointExtension><gpxtpx:hr>155</gpxtpx:hr></gpxtpx:TrackPointExtension></extensions>
      </trkpt>
      <trkpt lat="60.005934592964" lon="15.825352501539">
        <ele>8907</ele>
        <time>2015-11-25T19:57:46Z</time>
        <extensions><gpxtpx:TrackPointExtension><gpxtpx:hr>155</gpxtpx:hr></gpxtpx:TrackPointExtension></extensions>
      </trkpt>
      <trkpt lat="60.006060489102" lon="15.825271029471">
        <ele>8907</ele>
        <time>2015-11-25T19:57:52Z</time>
        <extensions><gpxtpx:TrackPointExtension><gpxtpx:hr>156</gpxtpx:hr></gpxtpx:TrackPointExtension></extensions>
      </trkpt>
      <trkpt lat="60.006156629495" lon="15.825133147216">
        <ele>8907</ele>
        <time>2015-11-25T19:57:57Z</time>
        <extensions><gpxtpx:TrackPointExtension><gpxtpx:hr>155</gpxtpx:hr></gpxtpx:TrackPointExtension></extensions>
      </trkpt>
      <trkpt lat="60.006245477635" lon="15.825013202227">
        <ele>8907</ele>
        <time>2015-11-25T19:58:02Z</time>
        <extensions><gpxtpx:TrackPointExtension><gpxtpx:hr>155</gpxtpx:hr></gpxtpx:TrackPointExtension></extensions>
      </trkpt>
      <trkpt lat="60.006288225325" lon="15.824871967212">
        <ele>8907</ele>
        <time>2015-11-25T19:58:07Z</time>
        <extensions><gpxtpx:TrackPointExtension><gpxtpx:hr>156</gpxtpx:hr></gpxtpx:TrackPointExtension></extensions>
      </trkpt>
      <trkpt lat="60.006260062141" lon="15.824665269558">
        <ele>8907</ele>
        <time>2015-11-25T19:58:12Z</time>
        <extensions><gpxtpx:TrackPointExtension><gpxtpx:hr>154</gpxtpx:hr></gpxtpx:TrackPointExtension></extensions>
      </trkpt>
      <trkpt lat="60.006221421582" lon="15.824418003508">
        <ele>8907</ele>
        <time>2015-11-25T19:58:18Z</time>
        <extensions><gpxtpx:TrackPointExtension><gpxtpx:hr>153</gpxtpx:hr></gpxtpx:TrackPointExtension></extensions>
      </trkpt>
      <trkpt lat="60.006172471286" lon="15.824156907323">
        <ele>8907</ele>
        <time>2015-11-25T19:58:24Z</time>
        <extensions><gpxtpx:TrackPointExtension><gpxtpx:hr>155</gpxtpx:hr></gpxtpx:TrackPointExtension></extensions>
      </trkpt>
      <trkpt lat="60.006156629495" lon="15.823949203841">
        <ele>8907</ele>
        <time>2015-11-25T19:58:29Z</time>
        <extensions><gpxtpx:TrackPointExtension><gpxtpx:hr>157</gpxtpx:hr></gpxtpx:TrackPointExtension></extensions>
      </trkpt>
      <trkpt lat="60.006145146292" lon="15.823741667997">
        <ele>8907</ele>
        <time>2015-11-25T19:58:34Z</time>
        <extensions><gpxtpx:TrackPointExtension><gpxtpx:hr>158</gpxtpx:hr></gpxtpx:TrackPointExtension></extensions>
      </trkpt>
      <trkpt lat="60.006135171831" lon="15.823521726941">
        <ele>8907</ele>
        <time>2015-11-25T19:58:39Z</time>
        <extensions><gpxtpx:TrackPointExtension><gpxtpx:hr>157</gpxtpx:hr></gpxtpx:TrackPointExtension></extensions>
      </trkpt>
      <trkpt lat="60.006117821298" lon="15.823176727937">
        <ele>8907</ele>
        <time>2015-11-25T19:58:46Z</time>
        <extensions><gpxtpx:TrackPointExtension><gpxtpx:hr>158</gpxtpx:hr></gpxtpx:TrackPointExtension></extensions>
      </trkpt>
      <trkpt lat="60.006127628121" lon="15.822961648383">
        <ele>8907</ele>
        <time>2015-11-25T19:58:51Z</time>
        <extensions><gpxtpx:TrackPointExtension><gpxtpx:hr>158</gpxtpx:hr></gpxtpx:TrackPointExtension></extensions>
      </trkpt>
      <trkpt lat="60.006117905117" lon="15.822724524432">
        <ele>8907</ele>
        <time>2015-11-25T19:58:56Z</time>
        <extensions><gpxtpx:TrackPointExtension><gpxtpx:hr>160</gpxtpx:hr></gpxtpx:TrackPointExtension></extensions>
      </trkpt>
      <trkpt lat="60.006103739706" lon="15.822502152625">
        <ele>8907</ele>
        <time>2015-11-25T19:59:01Z</time>
        <extensions><gpxtpx:TrackPointExtension><gpxtpx:hr>160</gpxtpx:hr></gpxtpx:TrackPointExtension></extensions>
      </trkpt>
      <trkpt lat="60.00610005167" lon="15.822290593469">
        <ele>8907</ele>
        <time>2015-11-25T19:59:06Z</time>
        <extensions><gpxtpx:TrackPointExtension><gpxtpx:hr>159</gpxtpx:hr></gpxtpx:TrackPointExtension></extensions>
      </trkpt>
      <trkpt lat="60.006085886259" lon="15.822011308561">
        <ele>8907</ele>
        <time>2015-11-25T19:59:12Z</time>
        <extensions><gpxtpx:TrackPointExtension><gpxtpx:hr>159</gpxtpx:hr></gpxtpx:TrackPointExtension></extensions>
      </trkpt>
      <trkpt lat="60.00607909692" lon="15.821724815219">
        <ele>8907</ele>
        <time>2015-11-25T19:59:18Z</time>
        <extensions><gpxtpx:TrackPointExtension><gpxtpx:hr>159</gpxtpx:hr></gpxtpx:TrackPointExtension></extensions>
      </trkpt>
      <trkpt lat="60.006078342549" lon="15.821443853931">
        <ele>8907</ele>
        <time>2015-11-25T19:59:24Z</time>
        <extensions><gpxtpx:TrackPointExtension><gpxtpx:hr>158</gpxtpx:hr></gpxtpx:TrackPointExtension></extensions>
      </trkpt>
      <trkpt lat="60.006055962876" lon="15.821209747464">
        <ele>8907</ele>
        <time>2015-11-25T19:59:29Z</time>
        <extensions><gpxtpx:TrackPointExtension><gpxtpx:hr>158</gpxtpx:hr></gpxtpx:TrackPointExtension></extensions>
      </trkpt>
      <trkpt lat="60.006034086117" lon="15.820978323205">
        <ele>8907</ele>
        <time>2015-11-25T19:59:34Z</time>
        <extensions><gpxtpx:TrackPointExtension><gpxtpx:hr>158</gpxtpx:hr></gpxtpx:TrackPointExtension></extensions>
      </trkpt>
      <trkpt lat="60.006008269865" lon="15.820685040524">
        <ele>8907</ele>
        <time>2015-11-25T19:59:40Z</time>
        <extensions><gpxtpx:TrackPointExtension><gpxtpx:hr>157</gpxtpx:hr></gpxtpx:TrackPointExtension></extensions>
      </trkpt>
      <trkpt lat="60.005969126392" lon="15.820408270186">
        <ele>8907</ele>
        <time>2015-11-25T19:59:46Z</time>
        <extensions><gpxtpx:TrackPointExtension><gpxtpx:hr>158</gpxtpx:hr></gpxtpx:TrackPointExtension></extensions>
      </trkpt>
      <trkpt lat="60.005909950178" lon="15.820156897005">
        <ele>8907</ele>
        <time>2015-11-25T19:59:52Z</time>
        <extensions><gpxtpx:TrackPointExtension><gpxtpx:hr>157</gpxtpx:hr></gpxtpx:TrackPointExtension></extensions>
      </trkpt>
      <trkpt lat="60.005831495594" lon="15.819917845217">
        <ele>8907</ele>
        <time>2015-11-25T19:59:58Z</time>
        <extensions><gpxtpx:TrackPointExtension><gpxtpx:hr>157</gpxtpx:hr></gpxtpx:TrackPointExtension></extensions>
      </trkpt>
      <trkpt lat="60.005766368231" lon="15.819791949079">
        <ele>8907</ele>
        <time>2015-11-25T20:00:02Z</time>
        <extensions><gpxtpx:TrackPointExtension><gpxtpx:hr>157</gpxtpx:hr></gpxtpx:TrackPointExtension></extensions>
      </trkpt>
      <trkpt lat="60.005685734353" lon="15.819645098191">
        <ele>8907</ele>
        <time>2015-11-25T20:00:07Z</time>
        <extensions><gpxtpx:TrackPointExtension><gpxtpx:hr>158</gpxtpx:hr></gpxtpx:TrackPointExtension></extensions>
      </trkpt>
      <trkpt lat="60.00555690455" lon="15.819441585659">
        <ele>8907</ele>
        <time>2015-11-25T20:00:14Z</time>
        <extensions><gpxtpx:TrackPointExtension><gpxtpx:hr>157</gpxtpx:hr></gpxtpx:TrackPointExtension></extensions>
      </trkpt>
      <trkpt lat="60.005425392539" lon="15.819264727569">
        <ele>8907</ele>
        <time>2015-11-25T20:00:20Z</time>
        <extensions><gpxtpx:TrackPointExtension><gpxtpx:hr>157</gpxtpx:hr></gpxtpx:TrackPointExtension></extensions>
      </trkpt>
      <trkpt lat="60.005291282139" lon="15.819077811199">
        <ele>8907</ele>
        <time>2015-11-25T20:00:27Z</time>
        <extensions><gpxtpx:TrackPointExtension><gpxtpx:hr>155</gpxtpx:hr></gpxtpx:TrackPointExtension></extensions>
      </trkpt>
      <trkpt lat="60.005178294127" lon="15.818897767987">
        <ele>8907</ele>
        <time>2015-11-25T20:00:33Z</time>
        <extensions><gpxtpx:TrackPointExtension><gpxtpx:hr>153</gpxtpx:hr></gpxtpx:TrackPointExtension></extensions>
      </trkpt>
      <trkpt lat="60.00515373516" lon="15.8187910664">
        <ele>8907</ele>
        <time>2015-11-25T20:00:36Z</time>
        <extensions><gpxtpx:TrackPointExtension><gpxtpx:hr>153</gpxtpx:hr></gpxtpx:TrackPointExtension></extensions>
      </trkpt>
      <trkpt lat="60.005146275269" lon="15.818685705917">
        <ele>8907</ele>
        <time>2015-11-25T20:00:39Z</time>
        <extensions><gpxtpx:TrackPointExtension><gpxtpx:hr>153</gpxtpx:hr></gpxtpx:TrackPointExtension></extensions>
      </trkpt>
      <trkpt lat="60.005143006328" lon="15.818474398218">
        <ele>8907</ele>
        <time>2015-11-25T20:00:44Z</time>
        <extensions><gpxtpx:TrackPointExtension><gpxtpx:hr>154</gpxtpx:hr></gpxtpx:TrackPointExtension></extensions>
      </trkpt>
      <trkpt lat="60.005174019358" lon="15.818282787984">
        <ele>8907</ele>
        <time>2015-11-25T20:00:49Z</time>
        <extensions><gpxtpx:TrackPointExtension><gpxtpx:hr>154</gpxtpx:hr></gpxtpx:TrackPointExtension></extensions>
      </trkpt>
      <trkpt lat="60.005191286072" lon="15.818255379171">
        <ele>8907</ele>
        <time>2015-11-25T20:00:50Z</time>
        <extensions><gpxtpx:TrackPointExtension><gpxtpx:hr>154</gpxtpx:hr></gpxtpx:TrackPointExtension></extensions>
      </trkpt>
      <trkpt lat="60.005221544731" lon="15.818149767231">
        <ele>8907</ele>
        <time>2015-11-25T20:00:53Z</time>
        <extensions><gpxtpx:TrackPointExtension><gpxtpx:hr>154</gpxtpx:hr></gpxtpx:TrackPointExtension></extensions>
      </trkpt>
      <trkpt lat="60.005239314359" lon="15.818070809733">
        <ele>8907</ele>
        <time>2015-11-25T20:00:55Z</time>
        <extensions><gpxtpx:TrackPointExtension><gpxtpx:hr>155</gpxtpx:hr></gpxtpx:TrackPointExtension></extensions>
      </trkpt>
      <trkpt lat="60.005257000168" lon="15.818036863038">
        <ele>8907</ele>
        <time>2015-11-25T20:00:56Z</time>
        <extensions><gpxtpx:TrackPointExtension><gpxtpx:hr>155</gpxtpx:hr></gpxtpx:TrackPointExtension></extensions>
      </trkpt>
      <trkpt lat="60.005316427839" lon="15.817917001868">
        <ele>8907</ele>
        <time>2015-11-25T20:01:00Z</time>
        <extensions><gpxtpx:TrackPointExtension><gpxtpx:hr>156</gpxtpx:hr></gpxtpx:TrackPointExtension></extensions>
      </trkpt>
      <trkpt lat="60.005402174676" lon="15.817704855979">
        <ele>8907</ele>
        <time>2015-11-25T20:01:06Z</time>
        <extensions><gpxtpx:TrackPointExtension><gpxtpx:hr>157</gpxtpx:hr></gpxtpx:TrackPointExtension></extensions>
      </trkpt>
      <trkpt lat="60.00549655487" lon="15.817515089763">
        <ele>8907</ele>
        <time>2015-11-25T20:01:12Z</time>
        <extensions><gpxtpx:TrackPointExtension><gpxtpx:hr>158</gpxtpx:hr></gpxtpx:TrackPointExtension></extensions>
      </trkpt>
      <trkpt lat="60.005561598414" lon="15.817342254985">
        <ele>8907</ele>
        <time>2015-11-25T20:01:18Z</time>
        <extensions><gpxtpx:TrackPointExtension><gpxtpx:hr>159</gpxtpx:hr></gpxtpx:TrackPointExtension></extensions>
      </trkpt>
      <trkpt lat="60.005620690809" lon="15.817192218975">
        <ele>8907</ele>
        <time>2015-11-25T20:01:23Z</time>
        <extensions><gpxtpx:TrackPointExtension><gpxtpx:hr>161</gpxtpx:hr></gpxtpx:TrackPointExtension></extensions>
      </trkpt>
      <trkpt lat="60.005638628075" lon="15.817115943685">
        <ele>8907</ele>
        <time>2015-11-25T20:01:25Z</time>
        <extensions><gpxtpx:TrackPointExtension><gpxtpx:hr>162</gpxtpx:hr></gpxtpx:TrackPointExtension></extensions>
      </trkpt>
      <trkpt lat="60.005621026085" lon="15.817063305353">
        <ele>8907</ele>
        <time>2015-11-25T20:01:27Z</time>
        <extensions><gpxtpx:TrackPointExtension><gpxtpx:hr>163</gpxtpx:hr></gpxtpx:TrackPointExtension></extensions>
      </trkpt>
      <trkpt lat="60.005594706919" lon="15.817010164107">
        <ele>8907</ele>
        <time>2015-11-25T20:01:29Z</time>
        <extensions><gpxtpx:TrackPointExtension><gpxtpx:hr>163</gpxtpx:hr></gpxtpx:TrackPointExtension></extensions>
      </trkpt>
      <trkpt lat="60.005566543735" lon="15.816879238829">
        <ele>8907</ele>
        <time>2015-11-25T20:01:33Z</time>
        <extensions><gpxtpx:TrackPointExtension><gpxtpx:hr>163</gpxtpx:hr></gpxtpx:TrackPointExtension></extensions>
      </trkpt>
      <trkpt lat="60.005523963683" lon="15.816691065174">
        <ele>8907</ele>
        <time>2015-11-25T20:01:38Z</time>
        <extensions><gpxtpx:TrackPointExtension><gpxtpx:hr>163</gpxtpx:hr></gpxtpx:TrackPointExtension></extensions>
      </trkpt>
      <trkpt lat="60.005481802726" lon="15.816429717532">
        <ele>8907</ele>
        <time>2015-11-25T20:01:44Z</time>
        <extensions><gpxtpx:TrackPointExtension><gpxtpx:hr>163</gpxtpx:hr></gpxtpx:TrackPointExtension></extensions>
      </trkpt>
      <trkpt lat="60.005402509952" lon="15.816106511468">
        <ele>8907</ele>
        <time>2015-11-25T20:01:53Z</time>
        <extensions><gpxtpx:TrackPointExtension><gpxtpx:hr>163</gpxtpx:hr></gpxtpx:TrackPointExtension></extensions>
      </trkpt>
      <trkpt lat="60.005369233809" lon="15.815841643428">
        <ele>8907</ele>
        <time>2015-11-25T20:01:59Z</time>
        <extensions><gpxtpx:TrackPointExtension><gpxtpx:hr>162</gpxtpx:hr></gpxtpx:TrackPointExtension></extensions>
      </trkpt>
      <trkpt lat="60.005334281286" lon="15.815501925021">
        <ele>8907</ele>
        <time>2015-11-25T20:02:06Z</time>
        <extensions><gpxtpx:TrackPointExtension><gpxtpx:hr>162</gpxtpx:hr></gpxtpx:TrackPointExtension></extensions>
      </trkpt>
      <trkpt lat="60.005324139187" lon="15.815151561601">
        <ele>8907</ele>
        <time>2015-11-25T20:02:13Z</time>
        <extensions><gpxtpx:TrackPointExtension><gpxtpx:hr>160</gpxtpx:hr></gpxtpx:TrackPointExtension></extensions>
      </trkpt>
      <trkpt lat="60.005337382589" lon="15.814799354163">
        <ele>8907</ele>
        <time>2015-11-25T20:02:20Z</time>
        <extensions><gpxtpx:TrackPointExtension><gpxtpx:hr>159</gpxtpx:hr></gpxtpx:TrackPointExtension></extensions>
      </trkpt>
      <trkpt lat="60.005334365105" lon="15.814493079537">
        <ele>8907</ele>
        <time>2015-11-25T20:02:26Z</time>
        <extensions><gpxtpx:TrackPointExtension><gpxtpx:hr>159</gpxtpx:hr></gpxtpx:TrackPointExtension></extensions>
      </trkpt>
      <trkpt lat="60.005318942409" lon="15.814271797377">
        <ele>8907</ele>
        <time>2015-11-25T20:02:31Z</time>
        <extensions><gpxtpx:TrackPointExtension><gpxtpx:hr>160</gpxtpx:hr></gpxtpx:TrackPointExtension></extensions>
      </trkpt>
      <trkpt lat="60.005289019026" lon="15.813983711474">
        <ele>8907</ele>
        <time>2015-11-25T20:02:38Z</time>
        <extensions><gpxtpx:TrackPointExtension><gpxtpx:hr>158</gpxtpx:hr></gpxtpx:TrackPointExtension></extensions>
      </trkpt>
      <trkpt lat="60.005313494174" lon="15.813738876175">
        <ele>8907</ele>
        <time>2015-11-25T20:02:44Z</time>
        <extensions><gpxtpx:TrackPointExtension><gpxtpx:hr>160</gpxtpx:hr></gpxtpx:TrackPointExtension></extensions>
      </trkpt>
      <trkpt lat="60.005352972923" lon="15.813508206287">
        <ele>8907</ele>
        <time>2015-11-25T20:02:50Z</time>
        <extensions><gpxtpx:TrackPointExtension><gpxtpx:hr>160</gpxtpx:hr></gpxtpx:TrackPointExtension></extensions>
      </trkpt>
      <trkpt lat="60.005420195761" lon="15.813254150898">
        <ele>8907</ele>
        <time>2015-11-25T20:02:57Z</time>
        <extensions><gpxtpx:TrackPointExtension><gpxtpx:hr>159</gpxtpx:hr></gpxtpx:TrackPointExtension></extensions>
      </trkpt>
      <trkpt lat="60.005472414998" lon="15.813023983924">
        <ele>8907</ele>
        <time>2015-11-25T20:03:03Z</time>
        <extensions><gpxtpx:TrackPointExtension><gpxtpx:hr>159</gpxtpx:hr></gpxtpx:TrackPointExtension></extensions>
      </trkpt>
      <trkpt lat="60.005526981167" lon="15.812744447559">
        <ele>8907</ele>
        <time>2015-11-25T20:03:10Z</time>
        <extensions><gpxtpx:TrackPointExtension><gpxtpx:hr>159</gpxtpx:hr></gpxtpx:TrackPointExtension></extensions>
      </trkpt>
      <trkpt lat="60.005467553496" lon="15.812683678784">
        <ele>8907</ele>
        <time>2015-11-25T20:03:14Z</time>
        <extensions><gpxtpx:TrackPointExtension><gpxtpx:hr>159</gpxtpx:hr></gpxtpx:TrackPointExtension></extensions>
      </trkpt>
      <trkpt lat="60.005316930753" lon="15.812648558623">
        <ele>8907</ele>
        <time>2015-11-25T20:03:20Z</time>
        <extensions><gpxtpx:TrackPointExtension><gpxtpx:hr>159</gpxtpx:hr></gpxtpx:TrackPointExtension></extensions>
      </trkpt>
      <trkpt lat="60.005296059822" lon="15.812641098732">
        <ele>8907</ele>
        <time>2015-11-25T20:03:21Z</time>
        <extensions><gpxtpx:TrackPointExtension><gpxtpx:hr>159</gpxtpx:hr></gpxtpx:TrackPointExtension></extensions>
      </trkpt>
      <trkpt lat="60.005189274416" lon="15.81257421117">
        <ele>8907</ele>
        <time>2015-11-25T20:03:25Z</time>
        <extensions><gpxtpx:TrackPointExtension><gpxtpx:hr>159</gpxtpx:hr></gpxtpx:TrackPointExtension></extensions>
      </trkpt>
      <trkpt lat="60.005047452668" lon="15.812497516785">
        <ele>8907</ele>
        <time>2015-11-25T20:03:30Z</time>
        <extensions><gpxtpx:TrackPointExtension><gpxtpx:hr>159</gpxtpx:hr></gpxtpx:TrackPointExtension></extensions>
      </trkpt>
      <trkpt lat="60.004912923173" lon="15.812431970327">
        <ele>8907</ele>
        <time>2015-11-25T20:03:36Z</time>
        <extensions><gpxtpx:TrackPointExtension><gpxtpx:hr>160</gpxtpx:hr></gpxtpx:TrackPointExtension></extensions>
      </trkpt>
      <trkpt lat="60.004762635706" lon="15.812334572649">
        <ele>8907</ele>
        <time>2015-11-25T20:03:42Z</time>
        <extensions><gpxtpx:TrackPointExtension><gpxtpx:hr>160</gpxtpx:hr></gpxtpx:TrackPointExtension></extensions>
      </trkpt>
      <trkpt lat="60.004621400691" lon="15.812165006812">
        <ele>8907</ele>
        <time>2015-11-25T20:03:49Z</time>
        <extensions><gpxtpx:TrackPointExtension><gpxtpx:hr>159</gpxtpx:hr></gpxtpx:TrackPointExtension></extensions>
      </trkpt>
      <trkpt lat="60.004552920568" lon="15.812074314654">
        <ele>8907</ele>
        <time>2015-11-25T20:03:53Z</time>
        <extensions><gpxtpx:TrackPointExtension><gpxtpx:hr>158</gpxtpx:hr></gpxtpx:TrackPointExtension></extensions>
      </trkpt>
      <trkpt lat="60.004478824572" lon="15.811888404112">
        <ele>8907</ele>
        <time>2015-11-25T20:03:59Z</time>
        <extensions><gpxtpx:TrackPointExtension><gpxtpx:hr>158</gpxtpx:hr></gpxtpx:TrackPointExtension></extensions>
      </trkpt>
      <trkpt lat="60.004396179038" lon="15.811686735598">
        <ele>8907</ele>
        <time>2015-11-25T20:04:04Z</time>
        <extensions><gpxtpx:TrackPointExtension><gpxtpx:hr>157</gpxtpx:hr></gpxtpx:TrackPointExtension></extensions>
      </trkpt>
      <trkpt lat="60.004313449685" lon="15.811506776205">
        <ele>8907</ele>
        <time>2015-11-25T20:04:09Z</time>
        <extensions><gpxtpx:TrackPointExtension><gpxtpx:hr>158</gpxtpx:hr></gpxtpx:TrackPointExtension></extensions>
      </trkpt>
      <trkpt lat="60.004240778612" lon="15.811345173173">
        <ele>8907</ele>
        <time>2015-11-25T20:04:14Z</time>
        <extensions><gpxtpx:TrackPointExtension><gpxtpx:hr>158</gpxtpx:hr></gpxtpx:TrackPointExtension></extensions>
      </trkpt>
      <trkpt lat="60.004156624336" lon="15.811175607336">
        <ele>8907</ele>
        <time>2015-11-25T20:04:19Z</time>
        <extensions><gpxtpx:TrackPointExtension><gpxtpx:hr>158</gpxtpx:hr></gpxtpx:TrackPointExtension></extensions>
      </trkpt>
      <trkpt lat="60.004060903038" lon="15.811002102006">
        <ele>8907</ele>
        <time>2015-11-25T20:04:24Z</time>
        <extensions><gpxtpx:TrackPointExtension><gpxtpx:hr>157</gpxtpx:hr></gpxtpx:TrackPointExtension></extensions>
      </trkpt>
      <trkpt lat="60.003978425142" lon="15.810798673293">
        <ele>8907</ele>
        <time>2015-11-25T20:04:30Z</time>
        <extensions><gpxtpx:TrackPointExtension><gpxtpx:hr>155</gpxtpx:hr></gpxtpx:TrackPointExtension></extensions>
      </trkpt>
      <trkpt lat="60.003919751842" lon="15.810637908451">
        <ele>8907</ele>
        <time>2015-11-25T20:04:35Z</time>
        <extensions><gpxtpx:TrackPointExtension><gpxtpx:hr>155</gpxtpx:hr></gpxtpx:TrackPointExtension></extensions>
      </trkpt>
      <trkpt lat="60.003817827938" lon="15.810425175829">
        <ele>8907</ele>
        <time>2015-11-25T20:04:41Z</time>
        <extensions><gpxtpx:TrackPointExtension><gpxtpx:hr>156</gpxtpx:hr></gpxtpx:TrackPointExtension></extensions>
      </trkpt>
      <trkpt lat="60.003739289535" lon="15.810215795967">
        <ele>8907</ele>
        <time>2015-11-25T20:04:47Z</time>
        <extensions><gpxtpx:TrackPointExtension><gpxtpx:hr>154</gpxtpx:hr></gpxtpx:TrackPointExtension></extensions>
      </trkpt>
      <trkpt lat="60.003668043385" lon="15.810017312575">
        <ele>8907</ele>
        <time>2015-11-25T20:04:52Z</time>
        <extensions><gpxtpx:TrackPointExtension><gpxtpx:hr>151</gpxtpx:hr></gpxtpx:TrackPointExtension></extensions>
      </trkpt>
      <trkpt lat="60.003647340092" lon="15.809953358678">
        <ele>8907</ele>
        <time>2015-11-25T20:04:54Z</time>
        <extensions><gpxtpx:TrackPointExtension><gpxtpx:hr>151</gpxtpx:hr></gpxtpx:TrackPointExtension></extensions>
      </trkpt>
      <trkpt lat="60.003604676221" lon="15.809792510017">
        <ele>8907</ele>
        <time>2015-11-25T20:04:58Z</time>
        <extensions><gpxtpx:TrackPointExtension><gpxtpx:hr>152</gpxtpx:hr></gpxtpx:TrackPointExtension></extensions>
      </trkpt>
      <trkpt lat="60.003566622395" lon="15.809771136172">
        <ele>8907</ele>
        <time>2015-11-25T20:05:00Z</time>
        <extensions><gpxtpx:TrackPointExtension><gpxtpx:hr>152</gpxtpx:hr></gpxtpx:TrackPointExtension></extensions>
      </trkpt>
      <trkpt lat="60.003448772881" lon="15.809823774504">
        <ele>8907</ele>
        <time>2015-11-25T20:05:05Z</time>
        <extensions><gpxtpx:TrackPointExtension><gpxtpx:hr>153</gpxtpx:hr></gpxtpx:TrackPointExtension></extensions>
      </trkpt>
      <trkpt lat="60.003430165063" lon="15.809840705942">
        <ele>8907</ele>
        <time>2015-11-25T20:05:06Z</time>
        <extensions><gpxtpx:TrackPointExtension><gpxtpx:hr>153</gpxtpx:hr></gpxtpx:TrackPointExtension></extensions>
      </trkpt>
      <trkpt lat="60.003349279728" lon="15.809925446951">
        <ele>8907</ele>
        <time>2015-11-25T20:05:10Z</time>
        <extensions><gpxtpx:TrackPointExtension><gpxtpx:hr>155</gpxtpx:hr></gpxtpx:TrackPointExtension></extensions>
      </trkpt>
      <trkpt lat="60.003256240638" lon="15.809989903762">
        <ele>8907</ele>
        <time>2015-11-25T20:05:15Z</time>
        <extensions><gpxtpx:TrackPointExtension><gpxtpx:hr>155</gpxtpx:hr></gpxtpx:TrackPointExtension></extensions>
      </trkpt>
      <trkpt lat="60.003166135213" lon="15.809891835532">
        <ele>8907</ele>
        <time>2015-11-25T20:05:20Z</time>
        <extensions><gpxtpx:TrackPointExtension><gpxtpx:hr>155</gpxtpx:hr></gpxtpx:TrackPointExtension></extensions>
      </trkpt>
      <trkpt lat="60.003011070063" lon="15.809742721531">
        <ele>8907</ele>
        <time>2015-11-25T20:05:27Z</time>
        <extensions><gpxtpx:TrackPointExtension><gpxtpx:hr>154</gpxtpx:hr></gpxtpx:TrackPointExtension></extensions>
      </trkpt>
      <trkpt lat="60.002905793399" lon="15.809628727691">
        <ele>8907</ele>
        <time>2015-11-25T20:05:32Z</time>
        <extensions><gpxtpx:TrackPointExtension><gpxtpx:hr>154</gpxtpx:hr></gpxtpx:TrackPointExtension></extensions>
      </trkpt>
      <trkpt lat="60.002813843956" lon="15.809473327265">
        <ele>8907</ele>
        <time>2015-11-25T20:05:37Z</time>
        <extensions><gpxtpx:TrackPointExtension><gpxtpx:hr>153</gpxtpx:hr></gpxtpx:TrackPointExtension></extensions>
      </trkpt>
      <trkpt lat="60.0027447771" lon="15.80934550329">
        <ele>8907</ele>
        <time>2015-11-25T20:05:41Z</time>
        <extensions><gpxtpx:TrackPointExtension><gpxtpx:hr>154</gpxtpx:hr></gpxtpx:TrackPointExtension></extensions>
      </trkpt>
      <trkpt lat="60.002731701336" lon="15.809301498315">
        <ele>8907</ele>
        <time>2015-11-25T20:05:42Z</time>
        <extensions><gpxtpx:TrackPointExtension><gpxtpx:hr>155</gpxtpx:hr></gpxtpx:TrackPointExtension></extensions>
      </trkpt>
      <trkpt lat="60.002631369993" lon="15.809157413454">
        <ele>8907</ele>
        <time>2015-11-25T20:05:47Z</time>
        <extensions><gpxtpx:TrackPointExtension><gpxtpx:hr>154</gpxtpx:hr></gpxtpx:TrackPointExtension></extensions>
      </trkpt>
      <trkpt lat="60.002518801076" lon="15.809043335795">
        <ele>8907</ele>
        <time>2015-11-25T20:05:52Z</time>
        <extensions><gpxtpx:TrackPointExtension><gpxtpx:hr>153</gpxtpx:hr></gpxtpx:TrackPointExtension></extensions>
      </trkpt>
      <trkpt lat="60.002467503848" lon="15.809016848991">
        <ele>8907</ele>
        <time>2015-11-25T20:05:55Z</time>
        <extensions><gpxtpx:TrackPointExtension><gpxtpx:hr>153</gpxtpx:hr></gpxtpx:TrackPointExtension></extensions>
      </trkpt>
      <trkpt lat="60.002433473334" lon="15.809004108503">
        <ele>8907</ele>
        <time>2015-11-25T20:05:57Z</time>
        <extensions><gpxtpx:TrackPointExtension><gpxtpx:hr>153</gpxtpx:hr></gpxtpx:TrackPointExtension></extensions>
      </trkpt>
      <trkpt lat="60.002367926876" lon="15.808969323618">
        <ele>8907</ele>
        <time>2015-11-25T20:06:00Z</time>
        <extensions><gpxtpx:TrackPointExtension><gpxtpx:hr>153</gpxtpx:hr></gpxtpx:TrackPointExtension></extensions>
      </trkpt>
      <trkpt lat="60.002344038461" lon="15.80895406856">
        <ele>8907</ele>
        <time>2015-11-25T20:06:01Z</time>
        <extensions><gpxtpx:TrackPointExtension><gpxtpx:hr>154</gpxtpx:hr></gpxtpx:TrackPointExtension></extensions>
      </trkpt>
      <trkpt lat="60.002246976059" lon="15.808874524329">
        <ele>8907</ele>
        <time>2015-11-25T20:06:06Z</time>
        <extensions><gpxtpx:TrackPointExtension><gpxtpx:hr>155</gpxtpx:hr></gpxtpx:TrackPointExtension></extensions>
      </trkpt>
      <trkpt lat="60.002248400982" lon="15.808845020041">
        <ele>8907</ele>
        <time>2015-11-25T20:06:07Z</time>
        <extensions><gpxtpx:TrackPointExtension><gpxtpx:hr>155</gpxtpx:hr></gpxtpx:TrackPointExtension></extensions>
      </trkpt>
      <trkpt lat="60.002261225289" lon="15.808768241837">
        <ele>8907</ele>
        <time>2015-11-25T20:06:09Z</time>
        <extensions><gpxtpx:TrackPointExtension><gpxtpx:hr>156</gpxtpx:hr></gpxtpx:TrackPointExtension></extensions>
      </trkpt>
      <trkpt lat="60.002294501432" lon="15.808647039563">
        <ele>8907</ele>
        <time>2015-11-25T20:06:12Z</time>
        <extensions><gpxtpx:TrackPointExtension><gpxtpx:hr>156</gpxtpx:hr></gpxtpx:TrackPointExtension></extensions>
      </trkpt>
      <trkpt lat="60.002308163929" lon="15.808552491731">
        <ele>8907</ele>
        <time>2015-11-25T20:06:14Z</time>
        <extensions><gpxtpx:TrackPointExtension><gpxtpx:hr>156</gpxtpx:hr></gpxtpx:TrackPointExtension></extensions>
      </trkpt>
      <trkpt lat="60.00233993133" lon="15.808329114096">
        <ele>8907</ele>
        <time>2015-11-25T20:06:19Z</time>
        <extensions><gpxtpx:TrackPointExtension><gpxtpx:hr>155</gpxtpx:hr></gpxtpx:TrackPointExtension></extensions>
      </trkpt>
      <trkpt lat="60.002400448648" lon="15.808077238001">
        <ele>8907</ele>
        <time>2015-11-25T20:06:25Z</time>
        <extensions><gpxtpx:TrackPointExtension><gpxtpx:hr>156</gpxtpx:hr></gpxtpx:TrackPointExtension></extensions>
      </trkpt>
      <trkpt lat="60.002450320953" lon="15.807873306374">
        <ele>8907</ele>
        <time>2015-11-25T20:06:30Z</time>
        <extensions><gpxtpx:TrackPointExtension><gpxtpx:hr>158</gpxtpx:hr></gpxtpx:TrackPointExtension></extensions>
      </trkpt>
      <trkpt lat="60.002488961512" lon="15.80763811026">
        <ele>8907</ele>
        <time>2015-11-25T20:06:36Z</time>
        <extensions><gpxtpx:TrackPointExtension><gpxtpx:hr>158</gpxtpx:hr></gpxtpx:TrackPointExtension></extensions>
      </trkpt>
      <trkpt lat="60.002558112187" lon="15.8073581548">
        <ele>8907</ele>
        <time>2015-11-25T20:06:43Z</time>
        <extensions><gpxtpx:TrackPointExtension><gpxtpx:hr>159</gpxtpx:hr></gpxtpx:TrackPointExtension></extensions>
      </trkpt>
      <trkpt lat="60.002594824909" lon="15.80715782739">
        <ele>8907</ele>
        <time>2015-11-25T20:06:48Z</time>
        <extensions><gpxtpx:TrackPointExtension><gpxtpx:hr>160</gpxtpx:hr></gpxtpx:TrackPointExtension></extensions>
      </trkpt>
      <trkpt lat="60.002600356963" lon="15.807121366125">
        <ele>8907</ele>
        <time>2015-11-25T20:06:49Z</time>
        <extensions><gpxtpx:TrackPointExtension><gpxtpx:hr>159</gpxtpx:hr></gpxtpx:TrackPointExtension></extensions>
      </trkpt>
      <trkpt lat="60.002627011405" lon="15.806976191617">
        <ele>8907</ele>
        <time>2015-11-25T20:06:53Z</time>
        <extensions><gpxtpx:TrackPointExtension><gpxtpx:hr>159</gpxtpx:hr></gpxtpx:TrackPointExtension></extensions>
      </trkpt>
      <trkpt lat="60.002640170988" lon="15.806906286571">
        <ele>8907</ele>
        <time>2015-11-25T20:06:55Z</time>
        <extensions><gpxtpx:TrackPointExtension><gpxtpx:hr>158</gpxtpx:hr></gpxtpx:TrackPointExtension></extensions>
      </trkpt>
      <trkpt lat="60.002678057176" lon="15.806629180957">
        <ele>8907</ele>
        <time>2015-11-25T20:07:02Z</time>
        <extensions><gpxtpx:TrackPointExtension><gpxtpx:hr>158</gpxtpx:hr></gpxtpx:TrackPointExtension></extensions>
      </trkpt>
      <trkpt lat="60.002719547581" lon="15.806424494959">
        <ele>8907</ele>
        <time>2015-11-25T20:07:07Z</time>
        <extensions><gpxtpx:TrackPointExtension><gpxtpx:hr>159</gpxtpx:hr></gpxtpx:TrackPointExtension></extensions>
      </trkpt>
      <trkpt lat="60.002755086837" lon="15.806268591619">
        <ele>8907</ele>
        <time>2015-11-25T20:07:11Z</time>
        <extensions><gpxtpx:TrackPointExtension><gpxtpx:hr>160</gpxtpx:hr></gpxtpx:TrackPointExtension></extensions>
      </trkpt>
      <trkpt lat="60.002801103468" lon="15.806035658618">
        <ele>8907</ele>
        <time>2015-11-25T20:07:16Z</time>
        <extensions><gpxtpx:TrackPointExtension><gpxtpx:hr>161</gpxtpx:hr></gpxtpx:TrackPointExtension></extensions>
      </trkpt>
      <trkpt lat="60.002829937204" lon="15.805799456676">
        <ele>8907</ele>
        <time>2015-11-25T20:07:21Z</time>
        <extensions><gpxtpx:TrackPointExtension><gpxtpx:hr>161</gpxtpx:hr></gpxtpx:TrackPointExtension></extensions>
      </trkpt>
      <trkpt lat="60.002819040734" lon="15.805584041846">
        <ele>8907</ele>
        <time>2015-11-25T20:07:26Z</time>
        <extensions><gpxtpx:TrackPointExtension><gpxtpx:hr>161</gpxtpx:hr></gpxtpx:TrackPointExtension></extensions>
      </trkpt>
      <trkpt lat="60.002766653859" lon="15.805365525713">
        <ele>8907</ele>
        <time>2015-11-25T20:07:32Z</time>
        <extensions><gpxtpx:TrackPointExtension><gpxtpx:hr>160</gpxtpx:hr></gpxtpx:TrackPointExtension></extensions>
      </trkpt>
      <trkpt lat="60.00269197113" lon="15.805103926614">
        <ele>8907</ele>
        <time>2015-11-25T20:07:39Z</time>
        <extensions><gpxtpx:TrackPointExtension><gpxtpx:hr>158</gpxtpx:hr></gpxtpx:TrackPointExtension></extensions>
      </trkpt>
      <trkpt lat="60.002633968382" lon="15.804859845686">
        <ele>8907</ele>
        <time>2015-11-25T20:07:45Z</time>
        <extensions><gpxtpx:TrackPointExtension><gpxtpx:hr>156</gpxtpx:hr></gpxtpx:TrackPointExtension></extensions>
      </trkpt>
      <trkpt lat="60.002579821308" lon="15.804629594893">
        <ele>8907</ele>
        <time>2015-11-25T20:07:51Z</time>
        <extensions><gpxtpx:TrackPointExtension><gpxtpx:hr>153</gpxtpx:hr></gpxtpx:TrackPointExtension></extensions>
      </trkpt>
      <trkpt lat="60.002526596243" lon="15.804377383522">
        <ele>8907</ele>
        <time>2015-11-25T20:07:57Z</time>
        <extensions><gpxtpx:TrackPointExtension><gpxtpx:hr>151</gpxtpx:hr></gpxtpx:TrackPointExtension></extensions>
      </trkpt>
      <trkpt lat="60.002489380607" lon="15.804173200438">
        <ele>8907</ele>
        <time>2015-11-25T20:08:02Z</time>
        <extensions><gpxtpx:TrackPointExtension><gpxtpx:hr>151</gpxtpx:hr></gpxtpx:TrackPointExtension></extensions>
      </trkpt>
      <trkpt lat="60.002496505222" lon="15.804147635643">
        <ele>8907</ele>
        <time>2015-11-25T20:08:03Z</time>
        <extensions><gpxtpx:TrackPointExtension><gpxtpx:hr>151</gpxtpx:hr></gpxtpx:TrackPointExtension></extensions>
      </trkpt>
      <trkpt lat="60.002599183497" lon="15.804008077008">
        <ele>8907</ele>
        <time>2015-11-25T20:08:08Z</time>
        <extensions><gpxtpx:TrackPointExtension><gpxtpx:hr>149</gpxtpx:hr></gpxtpx:TrackPointExtension></extensions>
      </trkpt>
      <trkpt lat="60.002642434101" lon="15.803794422377">
        <ele>8907</ele>
        <time>2015-11-25T20:08:13Z</time>
        <extensions><gpxtpx:TrackPointExtension><gpxtpx:hr>148</gpxtpx:hr></gpxtpx:TrackPointExtension></extensions>
      </trkpt>
      <trkpt lat="60.002594992547" lon="15.803580935384">
        <ele>8907</ele>
        <time>2015-11-25T20:08:18Z</time>
        <extensions><gpxtpx:TrackPointExtension><gpxtpx:hr>146</gpxtpx:hr></gpxtpx:TrackPointExtension></extensions>
      </trkpt>
      <trkpt lat="60.002584598991" lon="15.803547491603">
        <ele>8907</ele>
        <time>2015-11-25T20:08:19Z</time>
        <extensions><gpxtpx:TrackPointExtension><gpxtpx:hr>147</gpxtpx:hr></gpxtpx:TrackPointExtension></extensions>
      </trkpt>
      <trkpt lat="60.002523159664" lon="15.803282539744">
        <ele>8907</ele>
        <time>2015-11-25T20:08:25Z</time>
        <extensions><gpxtpx:TrackPointExtension><gpxtpx:hr>146</gpxtpx:hr></gpxtpx:TrackPointExtension></extensions>
      </trkpt>
      <trkpt lat="60.002473622635" lon="15.803030244554">
        <ele>8907</ele>
        <time>2015-11-25T20:08:31Z</time>
        <extensions><gpxtpx:TrackPointExtension><gpxtpx:hr>146</gpxtpx:hr></gpxtpx:TrackPointExtension></extensions>
      </trkpt>
      <trkpt lat="60.002424923796" lon="15.802806950738">
        <ele>8907</ele>
        <time>2015-11-25T20:08:36Z</time>
        <extensions><gpxtpx:TrackPointExtension><gpxtpx:hr>146</gpxtpx:hr></gpxtpx:TrackPointExtension></extensions>
      </trkpt>
      <trkpt lat="60.002351246895" lon="15.802505202338">
        <ele>8907</ele>
        <time>2015-11-25T20:08:43Z</time>
        <extensions><gpxtpx:TrackPointExtension><gpxtpx:hr>145</gpxtpx:hr></gpxtpx:TrackPointExtension></extensions>
      </trkpt>
      <trkpt lat="60.002296177812" lon="15.802299175236">
        <ele>8907</ele>
        <time>2015-11-25T20:08:48Z</time>
        <extensions><gpxtpx:TrackPointExtension><gpxtpx:hr>145</gpxtpx:hr></gpxtpx:TrackPointExtension></extensions>
      </trkpt>
      <trkpt lat="60.002242198376" lon="15.801989044936">
        <ele>8907</ele>
        <time>2015-11-25T20:08:55Z</time>
        <extensions><gpxtpx:TrackPointExtension><gpxtpx:hr>145</gpxtpx:hr></gpxtpx:TrackPointExtension></extensions>
      </trkpt>
      <trkpt lat="60.002209089871" lon="15.801780419445">
        <ele>8907</ele>
        <time>2015-11-25T20:09:00Z</time>
        <extensions><gpxtpx:TrackPointExtension><gpxtpx:hr>147</gpxtpx:hr></gpxtpx:TrackPointExtension></extensions>
      </trkpt>
      <trkpt lat="60.002200121238" lon="15.801704395612">
        <ele>8907</ele>
        <time>2015-11-25T20:09:02Z</time>
        <extensions><gpxtpx:TrackPointExtension><gpxtpx:hr>147</gpxtpx:hr></gpxtpx:TrackPointExtension></extensions>
      </trkpt>
      <trkpt lat="60.002177993022" lon="15.801621833897">
        <ele>8907</ele>
        <time>2015-11-25T20:09:04Z</time>
        <extensions><gpxtpx:TrackPointExtension><gpxtpx:hr>147</gpxtpx:hr></gpxtpx:TrackPointExtension></extensions>
      </trkpt>
      <trkpt lat="60.002139771558" lon="15.801468026032">
        <ele>8907</ele>
        <time>2015-11-25T20:09:08Z</time>
        <extensions><gpxtpx:TrackPointExtension><gpxtpx:hr>147</gpxtpx:hr></gpxtpx:TrackPointExtension></extensions>
      </trkpt>
      <trkpt lat="60.002082858457" lon="15.801254371401">
        <ele>8907</ele>
        <time>2015-11-25T20:09:14Z</time>
        <extensions><gpxtpx:TrackPointExtension><gpxtpx:hr>147</gpxtpx:hr></gpxtpx:TrackPointExtension></extensions>
      </trkpt>
      <trkpt lat="60.002037763835" lon="15.801068544678">
        <ele>8907</ele>
        <time>2015-11-25T20:09:19Z</time>
        <extensions><gpxtpx:TrackPointExtension><gpxtpx:hr>149</gpxtpx:hr></gpxtpx:TrackPointExtension></extensions>
      </trkpt>
      <trkpt lat="60.001990657557" lon="15.800855979694">
        <ele>8907</ele>
        <time>2015-11-25T20:09:24Z</time>
        <extensions><gpxtpx:TrackPointExtension><gpxtpx:hr>150</gpxtpx:hr></gpxtpx:TrackPointExtension></extensions>
      </trkpt>
      <trkpt lat="60.001974145214" lon="15.800575269863">
        <ele>8907</ele>
        <time>2015-11-25T20:09:30Z</time>
        <extensions><gpxtpx:TrackPointExtension><gpxtpx:hr>151</gpxtpx:hr></gpxtpx:TrackPointExtension></extensions>
      </trkpt>
      <trkpt lat="60.002003565683" lon="15.800284082657">
        <ele>8907</ele>
        <time>2015-11-25T20:09:36Z</time>
        <extensions><gpxtpx:TrackPointExtension><gpxtpx:hr>153</gpxtpx:hr></gpxtpx:TrackPointExtension></extensions>
      </trkpt>
      <trkpt lat="60.002019072198" lon="15.800065985619">
        <ele>8907</ele>
        <time>2015-11-25T20:09:41Z</time>
        <extensions><gpxtpx:TrackPointExtension><gpxtpx:hr>153</gpxtpx:hr></gpxtpx:TrackPointExtension></extensions>
      </trkpt>
      <trkpt lat="60.002014629791" lon="15.799800530846">
        <ele>8907</ele>
        <time>2015-11-25T20:09:47Z</time>
        <extensions><gpxtpx:TrackPointExtension><gpxtpx:hr>154</gpxtpx:hr></gpxtpx:TrackPointExtension></extensions>
      </trkpt>
      <trkpt lat="60.001995016145" lon="15.799538009738">
        <ele>8907</ele>
        <time>2015-11-25T20:09:53Z</time>
        <extensions><gpxtpx:TrackPointExtension><gpxtpx:hr>155</gpxtpx:hr></gpxtpx:TrackPointExtension></extensions>
      </trkpt>
      <trkpt lat="60.001972133558" lon="15.799274566621">
        <ele>8907</ele>
        <time>2015-11-25T20:09:59Z</time>
        <extensions><gpxtpx:TrackPointExtension><gpxtpx:hr>156</gpxtpx:hr></gpxtpx:TrackPointExtension></extensions>
      </trkpt>
      <trkpt lat="60.001926787479" lon="15.798973488773">
        <ele>8907</ele>
        <time>2015-11-25T20:10:06Z</time>
        <extensions><gpxtpx:TrackPointExtension><gpxtpx:hr>156</gpxtpx:hr></gpxtpx:TrackPointExtension></extensions>
      </trkpt>
      <trkpt lat="60.001869874378" lon="15.798849101377">
        <ele>8907</ele>
        <time>2015-11-25T20:10:10Z</time>
        <extensions><gpxtpx:TrackPointExtension><gpxtpx:hr>155</gpxtpx:hr></gpxtpx:TrackPointExtension></extensions>
      </trkpt>
      <trkpt lat="60.001843555212" lon="15.79886142277">
        <ele>8907</ele>
        <time>2015-11-25T20:10:11Z</time>
        <extensions><gpxtpx:TrackPointExtension><gpxtpx:hr>155</gpxtpx:hr></gpxtpx:TrackPointExtension></extensions>
      </trkpt>
      <trkpt lat="60.00175655109" lon="15.798956389697">
        <ele>8907</ele>
        <time>2015-11-25T20:10:16Z</time>
        <extensions><gpxtpx:TrackPointExtension><gpxtpx:hr>153</gpxtpx:hr></gpxtpx:TrackPointExtension></extensions>
      </trkpt>
      <trkpt lat="60.001718581083" lon="15.798994359704">
        <ele>8907</ele>
        <time>2015-11-25T20:10:18Z</time>
        <extensions><gpxtpx:TrackPointExtension><gpxtpx:hr>153</gpxtpx:hr></gpxtpx:TrackPointExtension></extensions>
      </trkpt>
      <trkpt lat="60.001629900581" lon="15.799083291663">
        <ele>8907</ele>
        <time>2015-11-25T20:10:22Z</time>
        <extensions><gpxtpx:TrackPointExtension><gpxtpx:hr>153</gpxtpx:hr></gpxtpx:TrackPointExtension></extensions>
      </trkpt>
      <trkpt lat="60.001479445476" lon="15.799225029592">
        <ele>8907</ele>
        <time>2015-11-25T20:10:29Z</time>
        <extensions><gpxtpx:TrackPointExtension><gpxtpx:hr>153</gpxtpx:hr></gpxtpx:TrackPointExtension></extensions>
      </trkpt>
      <trkpt lat="60.00133829428" lon="15.799388728099">
        <ele>8907</ele>
        <time>2015-11-25T20:10:36Z</time>
        <extensions><gpxtpx:TrackPointExtension><gpxtpx:hr>152</gpxtpx:hr></gpxtpx:TrackPointExtension></extensions>
      </trkpt>
      <trkpt lat="60.001259336782" lon="15.79947833061">
        <ele>8907</ele>
        <time>2015-11-25T20:10:40Z</time>
        <extensions><gpxtpx:TrackPointExtension><gpxtpx:hr>154</gpxtpx:hr></gpxtpx:TrackPointExtension></extensions>
      </trkpt>
      <trkpt lat="60.001154563032" lon="15.799603388558">
        <ele>8907</ele>
        <time>2015-11-25T20:10:45Z</time>
        <extensions><gpxtpx:TrackPointExtension><gpxtpx:hr>155</gpxtpx:hr></gpxtpx:TrackPointExtension></extensions>
      </trkpt>
      <trkpt lat="60.001025984686" lon="15.799737415139">
        <ele>8907</ele>
        <time>2015-11-25T20:10:51Z</time>
        <extensions><gpxtpx:TrackPointExtension><gpxtpx:hr>156</gpxtpx:hr></gpxtpx:TrackPointExtension></extensions>
      </trkpt>
      <trkpt lat="60.000915427425" lon="15.799852750083">
        <ele>8907</ele>
        <time>2015-11-25T20:10:56Z</time>
        <extensions><gpxtpx:TrackPointExtension><gpxtpx:hr>156</gpxtpx:hr></gpxtpx:TrackPointExtension></extensions>
      </trkpt>
      <trkpt lat="60.000772851306" lon="15.800020388083">
        <ele>8907</ele>
        <time>2015-11-25T20:11:03Z</time>
        <extensions><gpxtpx:TrackPointExtension><gpxtpx:hr>156</gpxtpx:hr></gpxtpx:TrackPointExtension></extensions>
      </trkpt>
      <trkpt lat="60.000661288217" lon="15.800144188746">
        <ele>8907</ele>
        <time>2015-11-25T20:11:08Z</time>
        <extensions><gpxtpx:TrackPointExtension><gpxtpx:hr>158</gpxtpx:hr></gpxtpx:TrackPointExtension></extensions>
      </trkpt>
      <trkpt lat="60.000544947445" lon="15.80027964025">
        <ele>8907</ele>
        <time>2015-11-25T20:11:13Z</time>
        <extensions><gpxtpx:TrackPointExtension><gpxtpx:hr>157</gpxtpx:hr></gpxtpx:TrackPointExtension></extensions>
      </trkpt>
      <trkpt lat="60.000463894472" lon="15.800376535014">
        <ele>8907</ele>
        <time>2015-11-25T20:11:17Z</time>
        <extensions><gpxtpx:TrackPointExtension><gpxtpx:hr>156</gpxtpx:hr></gpxtpx:TrackPointExtension></extensions>
      </trkpt>
      <trkpt lat="60.000334477936" lon="15.800529337051">
        <ele>8907</ele>
        <time>2015-11-25T20:11:23Z</time>
        <extensions><gpxtpx:TrackPointExtension><gpxtpx:hr>156</gpxtpx:hr></gpxtpx:TrackPointExtension></extensions>
      </trkpt>
      <trkpt lat="60.000210593454" lon="15.800650874601">
        <ele>8907</ele>
        <time>2015-11-25T20:11:28Z</time>
        <extensions><gpxtpx:TrackPointExtension><gpxtpx:hr>157</gpxtpx:hr></gpxtpx:TrackPointExtension></extensions>
      </trkpt>
      <trkpt lat="60.000052427001" lon="15.800809879244">
        <ele>8907</ele>
        <time>2015-11-25T20:11:35Z</time>
        <extensions><gpxtpx:TrackPointExtension><gpxtpx:hr>156</gpxtpx:hr></gpxtpx:TrackPointExtension></extensions>
      </trkpt>
      <trkpt lat="59.999929380709" lon="15.800962178367">
        <ele>8907</ele>
        <time>2015-11-25T20:11:41Z</time>
        <extensions><gpxtpx:TrackPointExtension><gpxtpx:hr>156</gpxtpx:hr></gpxtpx:TrackPointExtension></extensions>
      </trkpt>
      <trkpt lat="59.999811028281" lon="15.801143059769">
        <ele>8907</ele>
        <time>2015-11-25T20:11:47Z</time>
        <extensions><gpxtpx:TrackPointExtension><gpxtpx:hr>157</gpxtpx:hr></gpxtpx:TrackPointExtension></extensions>
      </trkpt>
      <trkpt lat="59.999674654768" lon="15.801347578129">
        <ele>8907</ele>
        <time>2015-11-25T20:11:54Z</time>
        <extensions><gpxtpx:TrackPointExtension><gpxtpx:hr>157</gpxtpx:hr></gpxtpx:TrackPointExtension></extensions>
      </trkpt>
      <trkpt lat="59.999574239606" lon="15.801591156143">
        <ele>8907</ele>
        <time>2015-11-25T20:12:00Z</time>
        <extensions><gpxtpx:TrackPointExtension><gpxtpx:hr>158</gpxtpx:hr></gpxtpx:TrackPointExtension></extensions>
      </trkpt>
      <trkpt lat="59.999473656806" lon="15.801864825178">
        <ele>8907</ele>
        <time>2015-11-25T20:12:07Z</time>
        <extensions><gpxtpx:TrackPointExtension><gpxtpx:hr>157</gpxtpx:hr></gpxtpx:TrackPointExtension></extensions>
      </trkpt>
      <trkpt lat="59.999361674622" lon="15.802182918283">
        <ele>8907</ele>
        <time>2015-11-25T20:12:15Z</time>
        <extensions><gpxtpx:TrackPointExtension><gpxtpx:hr>156</gpxtpx:hr></gpxtpx:TrackPointExtension></extensions>
      </trkpt>
      <trkpt lat="59.999260588908" lon="15.802510818211">
        <ele>8907</ele>
        <time>2015-11-25T20:12:23Z</time>
        <extensions><gpxtpx:TrackPointExtension><gpxtpx:hr>158</gpxtpx:hr></gpxtpx:TrackPointExtension></extensions>
      </trkpt>
      <trkpt lat="59.999146595068" lon="15.802759928279">
        <ele>8907</ele>
        <time>2015-11-25T20:12:30Z</time>
        <extensions><gpxtpx:TrackPointExtension><gpxtpx:hr>157</gpxtpx:hr></gpxtpx:TrackPointExtension></extensions>
      </trkpt>
      <trkpt lat="59.999024722242" lon="15.803034184047">
        <ele>8907</ele>
        <time>2015-11-25T20:12:37Z</time>
        <extensions><gpxtpx:TrackPointExtension><gpxtpx:hr>156</gpxtpx:hr></gpxtpx:TrackPointExtension></extensions>
      </trkpt>
      <trkpt lat="59.998909974031" lon="15.80328622778">
        <ele>8907</ele>
        <time>2015-11-25T20:12:44Z</time>
        <extensions><gpxtpx:TrackPointExtension><gpxtpx:hr>156</gpxtpx:hr></gpxtpx:TrackPointExtension></extensions>
      </trkpt>
      <trkpt lat="59.998808133946" lon="15.803486471371">
        <ele>8907</ele>
        <time>2015-11-25T20:12:50Z</time>
        <extensions><gpxtpx:TrackPointExtension><gpxtpx:hr>157</gpxtpx:hr></gpxtpx:TrackPointExtension></extensions>
      </trkpt>
      <trkpt lat="59.998705288033" lon="15.803710854834">
        <ele>8907</ele>
        <time>2015-11-25T20:12:56Z</time>
        <extensions><gpxtpx:TrackPointExtension><gpxtpx:hr>156</gpxtpx:hr></gpxtpx:TrackPointExtension></extensions>
      </trkpt>
      <trkpt lat="59.998626079078" lon="15.803865500889">
        <ele>8907</ele>
        <time>2015-11-25T20:13:01Z</time>
        <extensions><gpxtpx:TrackPointExtension><gpxtpx:hr>155</gpxtpx:hr></gpxtpx:TrackPointExtension></extensions>
      </trkpt>
      <trkpt lat="59.998530609237" lon="15.804045041187">
        <ele>8907</ele>
        <time>2015-11-25T20:13:06Z</time>
        <extensions><gpxtpx:TrackPointExtension><gpxtpx:hr>156</gpxtpx:hr></gpxtpx:TrackPointExtension></extensions>
      </trkpt>
      <trkpt lat="59.998386440557" lon="15.804309071037">
        <ele>8907</ele>
        <time>2015-11-25T20:13:14Z</time>
        <extensions><gpxtpx:TrackPointExtension><gpxtpx:hr>157</gpxtpx:hr></gpxtpx:TrackPointExtension></extensions>
      </trkpt>
      <trkpt lat="59.998297927693" lon="15.804462459807">
        <ele>8907</ele>
        <time>2015-11-25T20:13:19Z</time>
        <extensions><gpxtpx:TrackPointExtension><gpxtpx:hr>156</gpxtpx:hr></gpxtpx:TrackPointExtension></extensions>
      </trkpt>
      <trkpt lat="59.998186867518" lon="15.804651304014">
        <ele>8907</ele>
        <time>2015-11-25T20:13:25Z</time>
        <extensions><gpxtpx:TrackPointExtension><gpxtpx:hr>158</gpxtpx:hr></gpxtpx:TrackPointExtension></extensions>
      </trkpt>
      <trkpt lat="59.99808611708" lon="15.804863617541">
        <ele>8907</ele>
        <time>2015-11-25T20:13:31Z</time>
        <extensions><gpxtpx:TrackPointExtension><gpxtpx:hr>158</gpxtpx:hr></gpxtpx:TrackPointExtension></extensions>
      </trkpt>
      <trkpt lat="59.997985785737" lon="15.805060759829">
        <ele>8907</ele>
        <time>2015-11-25T20:13:37Z</time>
        <extensions><gpxtpx:TrackPointExtension><gpxtpx:hr>157</gpxtpx:hr></gpxtpx:TrackPointExtension></extensions>
      </trkpt>
      <trkpt lat="59.997859219047" lon="15.805272486623">
        <ele>8907</ele>
        <time>2015-11-25T20:13:44Z</time>
        <extensions><gpxtpx:TrackPointExtension><gpxtpx:hr>158</gpxtpx:hr></gpxtpx:TrackPointExtension></extensions>
      </trkpt>
      <trkpt lat="59.997746901587" lon="15.805448590342">
        <ele>8907</ele>
        <time>2015-11-25T20:13:50Z</time>
        <extensions><gpxtpx:TrackPointExtension><gpxtpx:hr>158</gpxtpx:hr></gpxtpx:TrackPointExtension></extensions>
      </trkpt>
      <trkpt lat="59.997623100924" lon="15.805637937463">
        <ele>8907</ele>
        <time>2015-11-25T20:13:56Z</time>
        <extensions><gpxtpx:TrackPointExtension><gpxtpx:hr>159</gpxtpx:hr></gpxtpx:TrackPointExtension></extensions>
      </trkpt>
      <trkpt lat="59.997492594741" lon="15.805842455823">
        <ele>8907</ele>
        <time>2015-11-25T20:14:03Z</time>
        <extensions><gpxtpx:TrackPointExtension><gpxtpx:hr>160</gpxtpx:hr></gpxtpx:TrackPointExtension></extensions>
      </trkpt>
      <trkpt lat="59.997341971998" lon="15.806022666673">
        <ele>8907</ele>
        <time>2015-11-25T20:14:10Z</time>
        <extensions><gpxtpx:TrackPointExtension><gpxtpx:hr>162</gpxtpx:hr></gpxtpx:TrackPointExtension></extensions>
      </trkpt>
      <trkpt lat="59.997219763896" lon="15.806178905289">
        <ele>8907</ele>
        <time>2015-11-25T20:14:16Z</time>
        <extensions><gpxtpx:TrackPointExtension><gpxtpx:hr>163</gpxtpx:hr></gpxtpx:TrackPointExtension></extensions>
      </trkpt>
      <trkpt lat="59.997079031795" lon="15.806312764232">
        <ele>8907</ele>
        <time>2015-11-25T20:14:23Z</time>
        <extensions><gpxtpx:TrackPointExtension><gpxtpx:hr>162</gpxtpx:hr></gpxtpx:TrackPointExtension></extensions>
      </trkpt>
      <trkpt lat="59.996974006588" lon="15.806431703393">
        <ele>8907</ele>
        <time>2015-11-25T20:14:28Z</time>
        <extensions><gpxtpx:TrackPointExtension><gpxtpx:hr>162</gpxtpx:hr></gpxtpx:TrackPointExtension></extensions>
      </trkpt>
      <trkpt lat="59.996884906991" lon="15.80658366724">
        <ele>8907</ele>
        <time>2015-11-25T20:14:33Z</time>
        <extensions><gpxtpx:TrackPointExtension><gpxtpx:hr>161</gpxtpx:hr></gpxtpx:TrackPointExtension></extensions>
      </trkpt>
      <trkpt lat="59.99681123009" lon="15.806722639142">
        <ele>8907</ele>
        <time>2015-11-25T20:14:38Z</time>
        <extensions><gpxtpx:TrackPointExtension><gpxtpx:hr>161</gpxtpx:hr></gpxtpx:TrackPointExtension></extensions>
      </trkpt>
      <trkpt lat="59.996677622604" lon="15.806880302681">
        <ele>8907</ele>
        <time>2015-11-25T20:14:45Z</time>
        <extensions><gpxtpx:TrackPointExtension><gpxtpx:hr>163</gpxtpx:hr></gpxtpx:TrackPointExtension></extensions>
      </trkpt>
      <trkpt lat="59.996555498321" lon="15.807016760013">
        <ele>8907</ele>
        <time>2015-11-25T20:14:51Z</time>
        <extensions><gpxtpx:TrackPointExtension><gpxtpx:hr>163</gpxtpx:hr></gpxtpx:TrackPointExtension></extensions>
      </trkpt>
      <trkpt lat="59.996425075957" lon="15.807159839046">
        <ele>8907</ele>
        <time>2015-11-25T20:14:58Z</time>
        <extensions><gpxtpx:TrackPointExtension><gpxtpx:hr>163</gpxtpx:hr></gpxtpx:TrackPointExtension></extensions>
      </trkpt>
      <trkpt lat="59.996352991617" lon="15.807274503438">
        <ele>8907</ele>
        <time>2015-11-25T20:15:02Z</time>
        <extensions><gpxtpx:TrackPointExtension><gpxtpx:hr>164</gpxtpx:hr></gpxtpx:TrackPointExtension></extensions>
      </trkpt>
      <trkpt lat="59.99623623175" lon="15.807404171431">
        <ele>8907</ele>
        <time>2015-11-25T20:15:08Z</time>
        <extensions><gpxtpx:TrackPointExtension><gpxtpx:hr>164</gpxtpx:hr></gpxtpx:TrackPointExtension></extensions>
      </trkpt>
      <trkpt lat="59.996132380009" lon="15.807506765887">
        <ele>8907</ele>
        <time>2015-11-25T20:15:13Z</time>
        <extensions><gpxtpx:TrackPointExtension><gpxtpx:hr>165</gpxtpx:hr></gpxtpx:TrackPointExtension></extensions>
      </trkpt>
      <trkpt lat="59.996008998441" lon="15.807704746365">
        <ele>8907</ele>
        <time>2015-11-25T20:15:20Z</time>
        <extensions><gpxtpx:TrackPointExtension><gpxtpx:hr>165</gpxtpx:hr></gpxtpx:TrackPointExtension></extensions>
      </trkpt>
      <trkpt lat="59.995908080365" lon="15.807869534519">
        <ele>8907</ele>
        <time>2015-11-25T20:15:26Z</time>
        <extensions><gpxtpx:TrackPointExtension><gpxtpx:hr>165</gpxtpx:hr></gpxtpx:TrackPointExtension></extensions>
      </trkpt>
      <trkpt lat="59.99577606544" lon="15.808065419522">
        <ele>8907</ele>
        <time>2015-11-25T20:15:33Z</time>
        <extensions><gpxtpx:TrackPointExtension><gpxtpx:hr>164</gpxtpx:hr></gpxtpx:TrackPointExtension></extensions>
      </trkpt>
      <trkpt lat="59.99563524952" lon="15.808227609287">
        <ele>8907</ele>
        <time>2015-11-25T20:15:40Z</time>
        <extensions><gpxtpx:TrackPointExtension><gpxtpx:hr>165</gpxtpx:hr></gpxtpx:TrackPointExtension></extensions>
      </trkpt>
      <trkpt lat="59.995466270416" lon="15.808412346363">
        <ele>8907</ele>
        <time>2015-11-25T20:15:48Z</time>
        <extensions><gpxtpx:TrackPointExtension><gpxtpx:hr>164</gpxtpx:hr></gpxtpx:TrackPointExtension></extensions>
      </trkpt>
      <trkpt lat="59.995451350634" lon="15.808427014688">
        <ele>8907</ele>
        <time>2015-11-25T20:15:49Z</time>
        <extensions><gpxtpx:TrackPointExtension><gpxtpx:hr>164</gpxtpx:hr></gpxtpx:TrackPointExtension></extensions>
      </trkpt>
      <trkpt lat="59.995325622134" lon="15.808621055673">
        <ele>8907</ele>
        <time>2015-11-25T20:15:55Z</time>
        <extensions><gpxtpx:TrackPointExtension><gpxtpx:hr>163</gpxtpx:hr></gpxtpx:TrackPointExtension></extensions>
      </trkpt>
      <trkpt lat="59.995163180912" lon="15.808807301491">
        <ele>8907</ele>
        <time>2015-11-25T20:16:02Z</time>
        <extensions><gpxtpx:TrackPointExtension><gpxtpx:hr>162</gpxtpx:hr></gpxtpx:TrackPointExtension></extensions>
      </trkpt>
      <trkpt lat="59.995026472123" lon="15.808942501538">
        <ele>8907</ele>
        <time>2015-11-25T20:16:08Z</time>
        <extensions><gpxtpx:TrackPointExtension><gpxtpx:hr>162</gpxtpx:hr></gpxtpx:TrackPointExtension></extensions>
      </trkpt>
      <trkpt lat="59.994878531588" lon="15.809091364082">
        <ele>8907</ele>
        <time>2015-11-25T20:16:15Z</time>
        <extensions><gpxtpx:TrackPointExtension><gpxtpx:hr>162</gpxtpx:hr></gpxtpx:TrackPointExtension></extensions>
      </trkpt>
      <trkpt lat="59.994699661842" lon="15.809259588815">
        <ele>8907</ele>
        <time>2015-11-25T20:16:23Z</time>
        <extensions><gpxtpx:TrackPointExtension><gpxtpx:hr>161</gpxtpx:hr></gpxtpx:TrackPointExtension></extensions>
      </trkpt>
      <trkpt lat="59.994570412944" lon="15.809417168535">
        <ele>8907</ele>
        <time>2015-11-25T20:16:29Z</time>
        <extensions><gpxtpx:TrackPointExtension><gpxtpx:hr>161</gpxtpx:hr></gpxtpx:TrackPointExtension></extensions>
      </trkpt>
      <trkpt lat="59.994396739976" lon="15.809612802081">
        <ele>8907</ele>
        <time>2015-11-25T20:16:37Z</time>
        <extensions><gpxtpx:TrackPointExtension><gpxtpx:hr>161</gpxtpx:hr></gpxtpx:TrackPointExtension></extensions>
      </trkpt>
      <trkpt lat="59.994251816925" lon="15.809755797295">
        <ele>8907</ele>
        <time>2015-11-25T20:16:44Z</time>
        <extensions><gpxtpx:TrackPointExtension><gpxtpx:hr>161</gpxtpx:hr></gpxtpx:TrackPointExtension></extensions>
      </trkpt>
      <trkpt lat="59.994108821711" lon="15.809927123331">
        <ele>8907</ele>
        <time>2015-11-25T20:16:51Z</time>
        <extensions><gpxtpx:TrackPointExtension><gpxtpx:hr>161</gpxtpx:hr></gpxtpx:TrackPointExtension></extensions>
      </trkpt>
      <trkpt lat="59.993944285014" lon="15.810114710253">
        <ele>8907</ele>
        <time>2015-11-25T20:16:59Z</time>
        <extensions><gpxtpx:TrackPointExtension><gpxtpx:hr>162</gpxtpx:hr></gpxtpx:TrackPointExtension></extensions>
      </trkpt>
      <trkpt lat="59.993791818253" lon="15.810298273863">
        <ele>8907</ele>
        <time>2015-11-25T20:17:07Z</time>
        <extensions><gpxtpx:TrackPointExtension><gpxtpx:hr>161</gpxtpx:hr></gpxtpx:TrackPointExtension></extensions>
      </trkpt>
      <trkpt lat="59.993648655401" lon="15.810465828044">
        <ele>8907</ele>
        <time>2015-11-25T20:17:14Z</time>
        <extensions><gpxtpx:TrackPointExtension><gpxtpx:hr>161</gpxtpx:hr></gpxtpx:TrackPointExtension></extensions>
      </trkpt>
      <trkpt lat="59.993492500604" lon="15.810647128541">
        <ele>8907</ele>
        <time>2015-11-25T20:17:21Z</time>
        <extensions><gpxtpx:TrackPointExtension><gpxtpx:hr>161</gpxtpx:hr></gpxtpx:TrackPointExtension></extensions>
      </trkpt>
      <trkpt lat="59.993474730976" lon="15.810670849318">
        <ele>8907</ele>
        <time>2015-11-25T20:17:22Z</time>
        <extensions><gpxtpx:TrackPointExtension><gpxtpx:hr>162</gpxtpx:hr></gpxtpx:TrackPointExtension></extensions>
      </trkpt>
      <trkpt lat="59.993303740216" lon="15.81087687642">
        <ele>8907</ele>
        <time>2015-11-25T20:17:30Z</time>
        <extensions><gpxtpx:TrackPointExtension><gpxtpx:hr>161</gpxtpx:hr></gpxtpx:TrackPointExtension></extensions>
      </trkpt>
      <trkpt lat="59.993279265068" lon="15.810912164219">
        <ele>8907</ele>
        <time>2015-11-25T20:17:31Z</time>
        <extensions><gpxtpx:TrackPointExtension><gpxtpx:hr>161</gpxtpx:hr></gpxtpx:TrackPointExtension></extensions>
      </trkpt>
      <trkpt lat="59.99315839807" lon="15.811047531904">
        <ele>8907</ele>
        <time>2015-11-25T20:17:37Z</time>
        <extensions><gpxtpx:TrackPointExtension><gpxtpx:hr>159</gpxtpx:hr></gpxtpx:TrackPointExtension></extensions>
      </trkpt>
      <trkpt lat="59.993064436971" lon="15.811176194069">
        <ele>8907</ele>
        <time>2015-11-25T20:17:42Z</time>
        <extensions><gpxtpx:TrackPointExtension><gpxtpx:hr>158</gpxtpx:hr></gpxtpx:TrackPointExtension></extensions>
      </trkpt>
      <trkpt lat="59.992940049575" lon="15.811302928397">
        <ele>8907</ele>
        <time>2015-11-25T20:17:48Z</time>
        <extensions><gpxtpx:TrackPointExtension><gpxtpx:hr>155</gpxtpx:hr></gpxtpx:TrackPointExtension></extensions>
      </trkpt>
      <trkpt lat="59.992809208116" lon="15.811427231974">
        <ele>8907</ele>
        <time>2015-11-25T20:17:54Z</time>
        <extensions><gpxtpx:TrackPointExtension><gpxtpx:hr>158</gpxtpx:hr></gpxtpx:TrackPointExtension></extensions>
      </trkpt>
      <trkpt lat="59.992762437114" lon="15.811476517546">
        <ele>8907</ele>
        <time>2015-11-25T20:17:56Z</time>
        <extensions><gpxtpx:TrackPointExtension><gpxtpx:hr>159</gpxtpx:hr></gpxtpx:TrackPointExtension></extensions>
      </trkpt>
      <trkpt lat="59.992594212381" lon="15.811652537446">
        <ele>8907</ele>
        <time>2015-11-25T20:18:04Z</time>
        <extensions><gpxtpx:TrackPointExtension><gpxtpx:hr>161</gpxtpx:hr></gpxtpx:TrackPointExtension></extensions>
      </trkpt>
      <trkpt lat="59.992548111931" lon="15.811694530765">
        <ele>8907</ele>
        <time>2015-11-25T20:18:06Z</time>
        <extensions><gpxtpx:TrackPointExtension><gpxtpx:hr>161</gpxtpx:hr></gpxtpx:TrackPointExtension></extensions>
      </trkpt>
      <trkpt lat="59.992385503071" lon="15.811838447988">
        <ele>8907</ele>
        <time>2015-11-25T20:18:13Z</time>
        <extensions><gpxtpx:TrackPointExtension><gpxtpx:hr>162</gpxtpx:hr></gpxtpx:TrackPointExtension></extensions>
      </trkpt>
      <trkpt lat="59.992222056021" lon="15.811967864524">
        <ele>8907</ele>
        <time>2015-11-25T20:18:20Z</time>
        <extensions><gpxtpx:TrackPointExtension><gpxtpx:hr>162</gpxtpx:hr></gpxtpx:TrackPointExtension></extensions>
      </trkpt>
      <trkpt lat="59.992080150454" lon="15.812084959667">
        <ele>8907</ele>
        <time>2015-11-25T20:18:26Z</time>
        <extensions><gpxtpx:TrackPointExtension><gpxtpx:hr>162</gpxtpx:hr></gpxtpx:TrackPointExtension></extensions>
      </trkpt>
      <trkpt lat="59.991907148038" lon="15.812240024817">
        <ele>8907</ele>
        <time>2015-11-25T20:18:33Z</time>
        <extensions><gpxtpx:TrackPointExtension><gpxtpx:hr>161</gpxtpx:hr></gpxtpx:TrackPointExtension></extensions>
      </trkpt>
      <trkpt lat="59.991735402907" lon="15.812384696411">
        <ele>8907</ele>
        <time>2015-11-25T20:18:40Z</time>
        <extensions><gpxtpx:TrackPointExtension><gpxtpx:hr>159</gpxtpx:hr></gpxtpx:TrackPointExtension></extensions>
      </trkpt>
      <trkpt lat="59.99156667526" lon="15.81254571271">
        <ele>8907</ele>
        <time>2015-11-25T20:18:47Z</time>
        <extensions><gpxtpx:TrackPointExtension><gpxtpx:hr>161</gpxtpx:hr></gpxtpx:TrackPointExtension></extensions>
      </trkpt>
      <trkpt lat="59.991494926196" lon="15.812617210317">
        <ele>8907</ele>
        <time>2015-11-25T20:18:50Z</time>
        <extensions><gpxtpx:TrackPointExtension><gpxtpx:hr>162</gpxtpx:hr></gpxtpx:TrackPointExtension></extensions>
      </trkpt>
      <trkpt lat="59.991365928755" lon="15.812759199703">
        <ele>8907</ele>
        <time>2015-11-25T20:18:56Z</time>
        <extensions><gpxtpx:TrackPointExtension><gpxtpx:hr>161</gpxtpx:hr></gpxtpx:TrackPointExtension></extensions>
      </trkpt>
      <trkpt lat="59.991225699568" lon="15.812828769473">
        <ele>8907</ele>
        <time>2015-11-25T20:19:02Z</time>
        <extensions><gpxtpx:TrackPointExtension><gpxtpx:hr>159</gpxtpx:hr></gpxtpx:TrackPointExtension></extensions>
      </trkpt>
      <trkpt lat="59.991102820914" lon="15.812850394775">
        <ele>8907</ele>
        <time>2015-11-25T20:19:07Z</time>
        <extensions><gpxtpx:TrackPointExtension><gpxtpx:hr>159</gpxtpx:hr></gpxtpx:TrackPointExtension></extensions>
      </trkpt>
      <trkpt lat="59.990966195944" lon="15.812908229885">
        <ele>8907</ele>
        <time>2015-11-25T20:19:13Z</time>
        <extensions><gpxtpx:TrackPointExtension><gpxtpx:hr>159</gpxtpx:hr></gpxtpx:TrackPointExtension></extensions>
      </trkpt>
      <trkpt lat="59.990797552116" lon="15.813013003635">
        <ele>8907</ele>
        <time>2015-11-25T20:19:20Z</time>
        <extensions><gpxtpx:TrackPointExtension><gpxtpx:hr>160</gpxtpx:hr></gpxtpx:TrackPointExtension></extensions>
      </trkpt>
      <trkpt lat="59.990673919091" lon="15.813131439882">
        <ele>8907</ele>
        <time>2015-11-25T20:19:26Z</time>
        <extensions><gpxtpx:TrackPointExtension><gpxtpx:hr>161</gpxtpx:hr></gpxtpx:TrackPointExtension></extensions>
      </trkpt>
      <trkpt lat="59.99052480509" lon="15.8132254848">
        <ele>8907</ele>
        <time>2015-11-25T20:19:32Z</time>
        <extensions><gpxtpx:TrackPointExtension><gpxtpx:hr>161</gpxtpx:hr></gpxtpx:TrackPointExtension></extensions>
      </trkpt>
      <trkpt lat="59.990458085166" lon="15.813259431495">
        <ele>8907</ele>
        <time>2015-11-25T20:19:36Z</time>
        <extensions><gpxtpx:TrackPointExtension><gpxtpx:hr>160</gpxtpx:hr></gpxtpx:TrackPointExtension></extensions>
      </trkpt>
      <trkpt lat="59.990408129042" lon="15.813241075134">
        <ele>8907</ele>
        <time>2015-11-25T20:19:38Z</time>
        <extensions><gpxtpx:TrackPointExtension><gpxtpx:hr>159</gpxtpx:hr></gpxtpx:TrackPointExtension></extensions>
      </trkpt>
      <trkpt lat="59.990356831814" lon="15.813239231116">
        <ele>8907</ele>
        <time>2015-11-25T20:19:40Z</time>
        <extensions><gpxtpx:TrackPointExtension><gpxtpx:hr>159</gpxtpx:hr></gpxtpx:TrackPointExtension></extensions>
      </trkpt>
      <trkpt lat="59.990269660054" lon="15.813315254949">
        <ele>8907</ele>
        <time>2015-11-25T20:19:44Z</time>
        <extensions><gpxtpx:TrackPointExtension><gpxtpx:hr>160</gpxtpx:hr></gpxtpx:TrackPointExtension></extensions>
      </trkpt>
      <trkpt lat="59.990244346716" lon="15.813345765065">
        <ele>8907</ele>
        <time>2015-11-25T20:19:45Z</time>
        <extensions><gpxtpx:TrackPointExtension><gpxtpx:hr>161</gpxtpx:hr></gpxtpx:TrackPointExtension></extensions>
      </trkpt>
      <trkpt lat="59.990104620443" lon="15.813460261819">
        <ele>8907</ele>
        <time>2015-11-25T20:19:51Z</time>
        <extensions><gpxtpx:TrackPointExtension><gpxtpx:hr>161</gpxtpx:hr></gpxtpx:TrackPointExtension></extensions>
      </trkpt>
      <trkpt lat="59.989969252758" lon="15.813554809651">
        <ele>8907</ele>
        <time>2015-11-25T20:19:57Z</time>
        <extensions><gpxtpx:TrackPointExtension><gpxtpx:hr>162</gpxtpx:hr></gpxtpx:TrackPointExtension></extensions>
      </trkpt>
      <trkpt lat="59.989841009688" lon="15.813641143221">
        <ele>8907</ele>
        <time>2015-11-25T20:20:03Z</time>
        <extensions><gpxtpx:TrackPointExtension><gpxtpx:hr>163</gpxtpx:hr></gpxtpx:TrackPointExtension></extensions>
      </trkpt>
      <trkpt lat="59.989690722221" lon="15.813745078781">
        <ele>8907</ele>
        <time>2015-11-25T20:20:10Z</time>
        <extensions><gpxtpx:TrackPointExtension><gpxtpx:hr>162</gpxtpx:hr></gpxtpx:TrackPointExtension></extensions>
      </trkpt>
      <trkpt lat="59.98958100315" lon="15.813829484514">
        <ele>8907</ele>
        <time>2015-11-25T20:20:15Z</time>
        <extensions><gpxtpx:TrackPointExtension><gpxtpx:hr>162</gpxtpx:hr></gpxtpx:TrackPointExtension></extensions>
      </trkpt>
      <trkpt lat="59.98945527465" lon="15.813955464471">
        <ele>8907</ele>
        <time>2015-11-25T20:20:21Z</time>
        <extensions><gpxtpx:TrackPointExtension><gpxtpx:hr>162</gpxtpx:hr></gpxtpx:TrackPointExtension></extensions>
      </trkpt>
      <trkpt lat="59.989334240014" lon="15.814029476648">
        <ele>8907</ele>
        <time>2015-11-25T20:20:26Z</time>
        <extensions><gpxtpx:TrackPointExtension><gpxtpx:hr>162</gpxtpx:hr></gpxtpx:TrackPointExtension></extensions>
      </trkpt>
      <trkpt lat="59.989203901469" lon="15.814136848787">
        <ele>8907</ele>
        <time>2015-11-25T20:20:32Z</time>
        <extensions><gpxtpx:TrackPointExtension><gpxtpx:hr>163</gpxtpx:hr></gpxtpx:TrackPointExtension></extensions>
      </trkpt>
      <trkpt lat="59.989078340607" lon="15.814233072999">
        <ele>8907</ele>
        <time>2015-11-25T20:20:38Z</time>
        <extensions><gpxtpx:TrackPointExtension><gpxtpx:hr>163</gpxtpx:hr></gpxtpx:TrackPointExtension></extensions>
      </trkpt>
      <trkpt lat="59.988929645701" lon="15.814331811781">
        <ele>8907</ele>
        <time>2015-11-25T20:20:44Z</time>
        <extensions><gpxtpx:TrackPointExtension><gpxtpx:hr>164</gpxtpx:hr></gpxtpx:TrackPointExtension></extensions>
      </trkpt>
      <trkpt lat="59.988792517817" lon="15.814416888066">
        <ele>8907</ele>
        <time>2015-11-25T20:20:50Z</time>
        <extensions><gpxtpx:TrackPointExtension><gpxtpx:hr>165</gpxtpx:hr></gpxtpx:TrackPointExtension></extensions>
      </trkpt>
      <trkpt lat="59.988651366621" lon="15.814503556912">
        <ele>8907</ele>
        <time>2015-11-25T20:20:56Z</time>
        <extensions><gpxtpx:TrackPointExtension><gpxtpx:hr>166</gpxtpx:hr></gpxtpx:TrackPointExtension></extensions>
      </trkpt>
      <trkpt lat="59.988515998936" lon="15.814631632344">
        <ele>8907</ele>
        <time>2015-11-25T20:21:03Z</time>
        <extensions><gpxtpx:TrackPointExtension><gpxtpx:hr>165</gpxtpx:hr></gpxtpx:TrackPointExtension></extensions>
      </trkpt>
      <trkpt lat="59.988403681476" lon="15.814765491287">
        <ele>8907</ele>
        <time>2015-11-25T20:21:09Z</time>
        <extensions><gpxtpx:TrackPointExtension><gpxtpx:hr>164</gpxtpx:hr></gpxtpx:TrackPointExtension></extensions>
      </trkpt>
      <trkpt lat="59.988258087873" lon="15.814935140943">
        <ele>8907</ele>
        <time>2015-11-25T20:21:16Z</time>
        <extensions><gpxtpx:TrackPointExtension><gpxtpx:hr>162</gpxtpx:hr></gpxtpx:TrackPointExtension></extensions>
      </trkpt>
      <trkpt lat="59.98812422893" lon="15.815071095361">
        <ele>8907</ele>
        <time>2015-11-25T20:21:22Z</time>
        <extensions><gpxtpx:TrackPointExtension><gpxtpx:hr>163</gpxtpx:hr></gpxtpx:TrackPointExtension></extensions>
      </trkpt>
      <trkpt lat="59.988084917819" lon="15.815232279298">
        <ele>8907</ele>
        <time>2015-11-25T20:21:26Z</time>
        <extensions><gpxtpx:TrackPointExtension><gpxtpx:hr>162</gpxtpx:hr></gpxtpx:TrackPointExtension></extensions>
      </trkpt>
      <trkpt lat="59.98807561391" lon="15.815198835517">
        <ele>8907</ele>
        <time>2015-11-25T20:21:27Z</time>
        <extensions><gpxtpx:TrackPointExtension><gpxtpx:hr>162</gpxtpx:hr></gpxtpx:TrackPointExtension></extensions>
      </trkpt>
      <trkpt lat="59.988014761316" lon="15.815183748097">
        <ele>8907</ele>
        <time>2015-11-25T20:21:29Z</time>
        <extensions><gpxtpx:TrackPointExtension><gpxtpx:hr>162</gpxtpx:hr></gpxtpx:TrackPointExtension></extensions>
      </trkpt>
      <trkpt lat="59.987925829357" lon="15.815229094176">
        <ele>8907</ele>
        <time>2015-11-25T20:21:32Z</time>
        <extensions><gpxtpx:TrackPointExtension><gpxtpx:hr>162</gpxtpx:hr></gpxtpx:TrackPointExtension></extensions>
      </trkpt>
      <trkpt lat="59.987860869632" lon="15.815276284273">
        <ele>8907</ele>
        <time>2015-11-25T20:21:35Z</time>
        <extensions><gpxtpx:TrackPointExtension><gpxtpx:hr>161</gpxtpx:hr></gpxtpx:TrackPointExtension></extensions>
      </trkpt>
      <trkpt lat="59.987748887448" lon="15.815355577047">
        <ele>8907</ele>
        <time>2015-11-25T20:21:40Z</time>
        <extensions><gpxtpx:TrackPointExtension><gpxtpx:hr>160</gpxtpx:hr></gpxtpx:TrackPointExtension></extensions>
      </trkpt>
      <trkpt lat="59.987614777048" lon="15.815439312228">
        <ele>8907</ele>
        <time>2015-11-25T20:21:46Z</time>
        <extensions><gpxtpx:TrackPointExtension><gpxtpx:hr>159</gpxtpx:hr></gpxtpx:TrackPointExtension></extensions>
      </trkpt>
      <trkpt lat="59.98746373521" lon="15.815504942505">
        <ele>8907</ele>
        <time>2015-11-25T20:21:52Z</time>
        <extensions><gpxtpx:TrackPointExtension><gpxtpx:hr>159</gpxtpx:hr></gpxtpx:TrackPointExtension></extensions>
      </trkpt>
      <trkpt lat="59.987326858783" lon="15.815613236653">
        <ele>8907</ele>
        <time>2015-11-25T20:21:58Z</time>
        <extensions><gpxtpx:TrackPointExtension><gpxtpx:hr>159</gpxtpx:hr></gpxtpx:TrackPointExtension></extensions>
      </trkpt>
      <trkpt lat="59.987177577144" lon="15.815714238548">
        <ele>8907</ele>
        <time>2015-11-25T20:22:04Z</time>
        <extensions><gpxtpx:TrackPointExtension><gpxtpx:hr>158</gpxtpx:hr></gpxtpx:TrackPointExtension></extensions>
      </trkpt>
      <trkpt lat="59.987041538907" lon="15.815838793582">
        <ele>8907</ele>
        <time>2015-11-25T20:22:10Z</time>
        <extensions><gpxtpx:TrackPointExtension><gpxtpx:hr>159</gpxtpx:hr></gpxtpx:TrackPointExtension></extensions>
      </trkpt>
      <trkpt lat="59.986929640542" lon="15.815928228455">
        <ele>8907</ele>
        <time>2015-11-25T20:22:15Z</time>
        <extensions><gpxtpx:TrackPointExtension><gpxtpx:hr>161</gpxtpx:hr></gpxtpx:TrackPointExtension></extensions>
      </trkpt>
      <trkpt lat="59.986819334738" lon="15.816022943925">
        <ele>8907</ele>
        <time>2015-11-25T20:22:20Z</time>
        <extensions><gpxtpx:TrackPointExtension><gpxtpx:hr>162</gpxtpx:hr></gpxtpx:TrackPointExtension></extensions>
      </trkpt>
      <trkpt lat="59.986750267882" lon="15.816130902797">
        <ele>8907</ele>
        <time>2015-11-25T20:22:24Z</time>
        <extensions><gpxtpx:TrackPointExtension><gpxtpx:hr>161</gpxtpx:hr></gpxtpx:TrackPointExtension></extensions>
      </trkpt>
      <trkpt lat="59.986745574018" lon="15.816187312984">
        <ele>8907</ele>
        <time>2015-11-25T20:22:25Z</time>
        <extensions><gpxtpx:TrackPointExtension><gpxtpx:hr>161</gpxtpx:hr></gpxtpx:TrackPointExtension></extensions>
      </trkpt>
      <trkpt lat="59.986760409981" lon="15.816328967094">
        <ele>8907</ele>
        <time>2015-11-25T20:22:28Z</time>
        <extensions><gpxtpx:TrackPointExtension><gpxtpx:hr>160</gpxtpx:hr></gpxtpx:TrackPointExtension></extensions>
      </trkpt>
      <trkpt lat="59.986771054994" lon="15.816419659252">
        <ele>8907</ele>
        <time>2015-11-25T20:22:30Z</time>
        <extensions><gpxtpx:TrackPointExtension><gpxtpx:hr>160</gpxtpx:hr></gpxtpx:TrackPointExtension></extensions>
      </trkpt>
      <trkpt lat="59.986801481291" lon="15.816782679341">
        <ele>8907</ele>
        <time>2015-11-25T20:22:37Z</time>
        <extensions><gpxtpx:TrackPointExtension><gpxtpx:hr>159</gpxtpx:hr></gpxtpx:TrackPointExtension></extensions>
      </trkpt>
      <trkpt lat="59.986814305598" lon="15.817005302605">
        <ele>8907</ele>
        <time>2015-11-25T20:22:42Z</time>
        <extensions><gpxtpx:TrackPointExtension><gpxtpx:hr>159</gpxtpx:hr></gpxtpx:TrackPointExtension></extensions>
      </trkpt>
      <trkpt lat="59.98681162339" lon="15.817304368797">
        <ele>8907</ele>
        <time>2015-11-25T20:22:48Z</time>
        <extensions><gpxtpx:TrackPointExtension><gpxtpx:hr>160</gpxtpx:hr></gpxtpx:TrackPointExtension></extensions>
      </trkpt>
      <trkpt lat="59.986787567337" lon="15.817525148043">
        <ele>8907</ele>
        <time>2015-11-25T20:22:53Z</time>
        <extensions><gpxtpx:TrackPointExtension><gpxtpx:hr>160</gpxtpx:hr></gpxtpx:TrackPointExtension></extensions>
      </trkpt>
      <trkpt lat="59.986751106072" lon="15.817699072468">
        <ele>8907</ele>
        <time>2015-11-25T20:22:57Z</time>
        <extensions><gpxtpx:TrackPointExtension><gpxtpx:hr>161</gpxtpx:hr></gpxtpx:TrackPointExtension></extensions>
      </trkpt>
      <trkpt lat="59.986743981457" lon="15.817723128521">
        <ele>8907</ele>
        <time>2015-11-25T20:22:58Z</time>
        <extensions><gpxtpx:TrackPointExtension><gpxtpx:hr>161</gpxtpx:hr></gpxtpx:TrackPointExtension></extensions>
      </trkpt>
      <trkpt lat="59.986653876032" lon="15.817910883081">
        <ele>8907</ele>
        <time>2015-11-25T20:23:04Z</time>
        <extensions><gpxtpx:TrackPointExtension><gpxtpx:hr>161</gpxtpx:hr></gpxtpx:TrackPointExtension></extensions>
      </trkpt>
      <trkpt lat="59.986591514696" lon="15.818055806132">
        <ele>8907</ele>
        <time>2015-11-25T20:23:08Z</time>
        <extensions><gpxtpx:TrackPointExtension><gpxtpx:hr>161</gpxtpx:hr></gpxtpx:TrackPointExtension></extensions>
      </trkpt>
      <trkpt lat="59.986511132275" lon="15.818248338375">
        <ele>8907</ele>
        <time>2015-11-25T20:23:14Z</time>
        <extensions><gpxtpx:TrackPointExtension><gpxtpx:hr>161</gpxtpx:hr></gpxtpx:TrackPointExtension></extensions>
      </trkpt>
      <trkpt lat="59.986479783969" lon="15.818465429585">
        <ele>8907</ele>
        <time>2015-11-25T20:23:19Z</time>
        <extensions><gpxtpx:TrackPointExtension><gpxtpx:hr>162</gpxtpx:hr></gpxtpx:TrackPointExtension></extensions>
      </trkpt>
      <trkpt lat="59.986462768712" lon="15.818533490613">
        <ele>8907</ele>
        <time>2015-11-25T20:23:21Z</time>
        <extensions><gpxtpx:TrackPointExtension><gpxtpx:hr>162</gpxtpx:hr></gpxtpx:TrackPointExtension></extensions>
      </trkpt>
      <trkpt lat="59.986424128153" lon="15.818578752873">
        <ele>8907</ele>
        <time>2015-11-25T20:23:23Z</time>
        <extensions><gpxtpx:TrackPointExtension><gpxtpx:hr>162</gpxtpx:hr></gpxtpx:TrackPointExtension></extensions>
      </trkpt>
      <trkpt lat="59.986385906689" lon="15.818673133067">
        <ele>8907</ele>
        <time>2015-11-25T20:23:26Z</time>
        <extensions><gpxtpx:TrackPointExtension><gpxtpx:hr>162</gpxtpx:hr></gpxtpx:TrackPointExtension></extensions>
      </trkpt>
      <trkpt lat="59.986371322183" lon="15.818701296251">
        <ele>8907</ele>
        <time>2015-11-25T20:23:27Z</time>
        <extensions><gpxtpx:TrackPointExtension><gpxtpx:hr>162</gpxtpx:hr></gpxtpx:TrackPointExtension></extensions>
      </trkpt>
      <trkpt lat="59.986281384396" lon="15.818911933398">
        <ele>8907</ele>
        <time>2015-11-25T20:23:33Z</time>
        <extensions><gpxtpx:TrackPointExtension><gpxtpx:hr>161</gpxtpx:hr></gpxtpx:TrackPointExtension></extensions>
      </trkpt>
      <trkpt lat="59.986266967528" lon="15.819147464788">
        <ele>8907</ele>
        <time>2015-11-25T20:23:38Z</time>
        <extensions><gpxtpx:TrackPointExtension><gpxtpx:hr>160</gpxtpx:hr></gpxtpx:TrackPointExtension></extensions>
      </trkpt>
      <trkpt lat="59.986251209556" lon="15.819402442186">
        <ele>8907</ele>
        <time>2015-11-25T20:23:43Z</time>
        <extensions><gpxtpx:TrackPointExtension><gpxtpx:hr>161</gpxtpx:hr></gpxtpx:TrackPointExtension></extensions>
      </trkpt>
      <trkpt lat="59.986197146301" lon="15.819539234794">
        <ele>8907</ele>
        <time>2015-11-25T20:23:47Z</time>
        <extensions><gpxtpx:TrackPointExtension><gpxtpx:hr>161</gpxtpx:hr></gpxtpx:TrackPointExtension></extensions>
      </trkpt>
      <trkpt lat="59.986172838791" lon="15.819542839011">
        <ele>8907</ele>
        <time>2015-11-25T20:23:48Z</time>
        <extensions><gpxtpx:TrackPointExtension><gpxtpx:hr>160</gpxtpx:hr></gpxtpx:TrackPointExtension></extensions>
      </trkpt>
      <trkpt lat="59.986066053385" lon="15.819507970307">
        <ele>8907</ele>
        <time>2015-11-25T20:23:53Z</time>
        <extensions><gpxtpx:TrackPointExtension><gpxtpx:hr>160</gpxtpx:hr></gpxtpx:TrackPointExtension></extensions>
      </trkpt>
      <trkpt lat="59.985980809462" lon="15.819468659196">
        <ele>8907</ele>
        <time>2015-11-25T20:23:56Z</time>
        <extensions><gpxtpx:TrackPointExtension><gpxtpx:hr>160</gpxtpx:hr></gpxtpx:TrackPointExtension></extensions>
      </trkpt>
      <trkpt lat="59.985931691528" lon="15.819446447161">
        <ele>8907</ele>
        <time>2015-11-25T20:23:58Z</time>
        <extensions><gpxtpx:TrackPointExtension><gpxtpx:hr>161</gpxtpx:hr></gpxtpx:TrackPointExtension></extensions>
      </trkpt>
      <trkpt lat="59.985791629979" lon="15.819397413046">
        <ele>8907</ele>
        <time>2015-11-25T20:24:04Z</time>
        <extensions><gpxtpx:TrackPointExtension><gpxtpx:hr>162</gpxtpx:hr></gpxtpx:TrackPointExtension></extensions>
      </trkpt>
      <trkpt lat="59.985683838745" lon="15.819423229298">
        <ele>8907</ele>
        <time>2015-11-25T20:24:08Z</time>
        <extensions><gpxtpx:TrackPointExtension><gpxtpx:hr>163</gpxtpx:hr></gpxtpx:TrackPointExtension></extensions>
      </trkpt>
      <trkpt lat="59.985659279778" lon="15.819479052752">
        <ele>8907</ele>
        <time>2015-11-25T20:24:10Z</time>
        <extensions><gpxtpx:TrackPointExtension><gpxtpx:hr>163</gpxtpx:hr></gpxtpx:TrackPointExtension></extensions>
      </trkpt>
      <trkpt lat="59.985626506549" lon="15.819565051046">
        <ele>8907</ele>
        <time>2015-11-25T20:24:12Z</time>
        <extensions><gpxtpx:TrackPointExtension><gpxtpx:hr>162</gpxtpx:hr></gpxtpx:TrackPointExtension></extensions>
      </trkpt>
      <trkpt lat="59.985557020598" lon="15.819849365094">
        <ele>8907</ele>
        <time>2015-11-25T20:24:19Z</time>
        <extensions><gpxtpx:TrackPointExtension><gpxtpx:hr>163</gpxtpx:hr></gpxtpx:TrackPointExtension></extensions>
      </trkpt>
      <trkpt lat="59.985515949288" lon="15.820010129936">
        <ele>8907</ele>
        <time>2015-11-25T20:24:23Z</time>
        <extensions><gpxtpx:TrackPointExtension><gpxtpx:hr>163</gpxtpx:hr></gpxtpx:TrackPointExtension></extensions>
      </trkpt>
      <trkpt lat="59.985462891861" lon="15.820228394612">
        <ele>8907</ele>
        <time>2015-11-25T20:24:28Z</time>
        <extensions><gpxtpx:TrackPointExtension><gpxtpx:hr>164</gpxtpx:hr></gpxtpx:TrackPointExtension></extensions>
      </trkpt>
      <trkpt lat="59.985385610743" lon="15.820373820577">
        <ele>8907</ele>
        <time>2015-11-25T20:24:33Z</time>
        <extensions><gpxtpx:TrackPointExtension><gpxtpx:hr>163</gpxtpx:hr></gpxtpx:TrackPointExtension></extensions>
      </trkpt>
      <trkpt lat="59.985273880016" lon="15.820358230243">
        <ele>8907</ele>
        <time>2015-11-25T20:24:38Z</time>
        <extensions><gpxtpx:TrackPointExtension><gpxtpx:hr>163</gpxtpx:hr></gpxtpx:TrackPointExtension></extensions>
      </trkpt>
      <trkpt lat="59.985131471535" lon="15.82032914505">
        <ele>8907</ele>
        <time>2015-11-25T20:24:44Z</time>
        <extensions><gpxtpx:TrackPointExtension><gpxtpx:hr>163</gpxtpx:hr></gpxtpx:TrackPointExtension></extensions>
      </trkpt>
      <trkpt lat="59.984981770801" lon="15.820407431996">
        <ele>8907</ele>
        <time>2015-11-25T20:24:50Z</time>
        <extensions><gpxtpx:TrackPointExtension><gpxtpx:hr>162</gpxtpx:hr></gpxtpx:TrackPointExtension></extensions>
      </trkpt>
      <trkpt lat="59.984867190228" lon="15.820519749456">
        <ele>8907</ele>
        <time>2015-11-25T20:24:55Z</time>
        <extensions><gpxtpx:TrackPointExtension><gpxtpx:hr>163</gpxtpx:hr></gpxtpx:TrackPointExtension></extensions>
      </trkpt>
      <trkpt lat="59.984784209418" lon="15.820730721879">
        <ele>8907</ele>
        <time>2015-11-25T20:25:01Z</time>
        <extensions><gpxtpx:TrackPointExtension><gpxtpx:hr>164</gpxtpx:hr></gpxtpx:TrackPointExtension></extensions>
      </trkpt>
      <trkpt lat="59.984778509726" lon="15.821003385086">
        <ele>8907</ele>
        <time>2015-11-25T20:25:06Z</time>
        <extensions><gpxtpx:TrackPointExtension><gpxtpx:hr>163</gpxtpx:hr></gpxtpx:TrackPointExtension></extensions>
      </trkpt>
      <trkpt lat="59.984814970991" lon="15.821242353055">
        <ele>8907</ele>
        <time>2015-11-25T20:25:11Z</time>
        <extensions><gpxtpx:TrackPointExtension><gpxtpx:hr>161</gpxtpx:hr></gpxtpx:TrackPointExtension></extensions>
      </trkpt>
      <trkpt lat="59.984846654573" lon="15.821548376224">
        <ele>8907</ele>
        <time>2015-11-25T20:25:17Z</time>
        <extensions><gpxtpx:TrackPointExtension><gpxtpx:hr>160</gpxtpx:hr></gpxtpx:TrackPointExtension></extensions>
      </trkpt>
      <trkpt lat="59.984870040074" lon="15.821860350542">
        <ele>8907</ele>
        <time>2015-11-25T20:25:23Z</time>
        <extensions><gpxtpx:TrackPointExtension><gpxtpx:hr>162</gpxtpx:hr></gpxtpx:TrackPointExtension></extensions>
      </trkpt>
      <trkpt lat="59.984910776108" lon="15.822209456677">
        <ele>8907</ele>
        <time>2015-11-25T20:25:30Z</time>
        <extensions><gpxtpx:TrackPointExtension><gpxtpx:hr>163</gpxtpx:hr></gpxtpx:TrackPointExtension></extensions>
      </trkpt>
      <trkpt lat="59.984931814677" lon="15.822496872028">
        <ele>8907</ele>
        <time>2015-11-25T20:25:36Z</time>
        <extensions><gpxtpx:TrackPointExtension><gpxtpx:hr>162</gpxtpx:hr></gpxtpx:TrackPointExtension></extensions>
      </trkpt>
      <trkpt lat="59.984957463291" lon="15.822800045351">
        <ele>8907</ele>
        <time>2015-11-25T20:25:42Z</time>
        <extensions><gpxtpx:TrackPointExtension><gpxtpx:hr>163</gpxtpx:hr></gpxtpx:TrackPointExtension></extensions>
      </trkpt>
      <trkpt lat="59.984983531" lon="15.823043371908">
        <ele>8907</ele>
        <time>2015-11-25T20:25:47Z</time>
        <extensions><gpxtpx:TrackPointExtension><gpxtpx:hr>164</gpxtpx:hr></gpxtpx:TrackPointExtension></extensions>
      </trkpt>
      <trkpt lat="59.98501370584" lon="15.823386275437">
        <ele>8907</ele>
        <time>2015-11-25T20:25:54Z</time>
        <extensions><gpxtpx:TrackPointExtension><gpxtpx:hr>164</gpxtpx:hr></gpxtpx:TrackPointExtension></extensions>
      </trkpt>
      <trkpt lat="59.985009598709" lon="15.823669751295">
        <ele>8907</ele>
        <time>2015-11-25T20:26:00Z</time>
        <extensions><gpxtpx:TrackPointExtension><gpxtpx:hr>165</gpxtpx:hr></gpxtpx:TrackPointExtension></extensions>
      </trkpt>
      <trkpt lat="59.98491731399" lon="15.823832108698">
        <ele>8907</ele>
        <time>2015-11-25T20:26:05Z</time>
        <extensions><gpxtpx:TrackPointExtension><gpxtpx:hr>165</gpxtpx:hr></gpxtpx:TrackPointExtension></extensions>
      </trkpt>
      <trkpt lat="59.984762835573" lon="15.824019192706">
        <ele>8907</ele>
        <time>2015-11-25T20:26:12Z</time>
        <extensions><gpxtpx:TrackPointExtension><gpxtpx:hr>167</gpxtpx:hr></gpxtpx:TrackPointExtension></extensions>
      </trkpt>
      <trkpt lat="59.984742048461" lon="15.824035872687">
        <ele>8907</ele>
        <time>2015-11-25T20:26:13Z</time>
        <extensions><gpxtpx:TrackPointExtension><gpxtpx:hr>167</gpxtpx:hr></gpxtpx:TrackPointExtension></extensions>
      </trkpt>
      <trkpt lat="59.984637777625" lon="15.824154811848">
        <ele>8907</ele>
        <time>2015-11-25T20:26:18Z</time>
        <extensions><gpxtpx:TrackPointExtension><gpxtpx:hr>167</gpxtpx:hr></gpxtpx:TrackPointExtension></extensions>
      </trkpt>
      <trkpt lat="59.984512552039" lon="15.824293448474">
        <ele>8907</ele>
        <time>2015-11-25T20:26:24Z</time>
        <extensions><gpxtpx:TrackPointExtension><gpxtpx:hr>166</gpxtpx:hr></gpxtpx:TrackPointExtension></extensions>
      </trkpt>
      <trkpt lat="59.984402162416" lon="15.824395540016">
        <ele>8907</ele>
        <time>2015-11-25T20:26:29Z</time>
        <extensions><gpxtpx:TrackPointExtension><gpxtpx:hr>166</gpxtpx:hr></gpxtpx:TrackPointExtension></extensions>
      </trkpt>
      <trkpt lat="59.984274086984" lon="15.824487238002">
        <ele>8907</ele>
        <time>2015-11-25T20:26:34Z</time>
        <extensions><gpxtpx:TrackPointExtension><gpxtpx:hr>166</gpxtpx:hr></gpxtpx:TrackPointExtension></extensions>
      </trkpt>
      <trkpt lat="59.984151878882" lon="15.824552365365">
        <ele>8907</ele>
        <time>2015-11-25T20:26:39Z</time>
        <extensions><gpxtpx:TrackPointExtension><gpxtpx:hr>166</gpxtpx:hr></gpxtpx:TrackPointExtension></extensions>
      </trkpt>
      <trkpt lat="59.984020283052" lon="15.824598717272">
        <ele>8907</ele>
        <time>2015-11-25T20:26:45Z</time>
        <extensions><gpxtpx:TrackPointExtension><gpxtpx:hr>166</gpxtpx:hr></gpxtpx:TrackPointExtension></extensions>
      </trkpt>
      <trkpt lat="59.983880975874" lon="15.824605087516">
        <ele>8907</ele>
        <time>2015-11-25T20:26:51Z</time>
        <extensions><gpxtpx:TrackPointExtension><gpxtpx:hr>166</gpxtpx:hr></gpxtpx:TrackPointExtension></extensions>
      </trkpt>
      <trkpt lat="59.98384694536" lon="15.824581785834">
        <ele>8907</ele>
        <time>2015-11-25T20:26:53Z</time>
        <extensions><gpxtpx:TrackPointExtension><gpxtpx:hr>166</gpxtpx:hr></gpxtpx:TrackPointExtension></extensions>
      </trkpt>
      <trkpt lat="59.98377234645" lon="15.824515317367">
        <ele>8907</ele>
        <time>2015-11-25T20:26:56Z</time>
        <extensions><gpxtpx:TrackPointExtension><gpxtpx:hr>165</gpxtpx:hr></gpxtpx:TrackPointExtension></extensions>
      </trkpt>
      <trkpt lat="59.983744518542" lon="15.824480113387">
        <ele>8907</ele>
        <time>2015-11-25T20:26:57Z</time>
        <extensions><gpxtpx:TrackPointExtension><gpxtpx:hr>165</gpxtpx:hr></gpxtpx:TrackPointExtension></extensions>
      </trkpt>
      <trkpt lat="59.983687521622" lon="15.824368717936">
        <ele>8907</ele>
        <time>2015-11-25T20:27:01Z</time>
        <extensions><gpxtpx:TrackPointExtension><gpxtpx:hr>165</gpxtpx:hr></gpxtpx:TrackPointExtension></extensions>
      </trkpt>
      <trkpt lat="59.98358040094" lon="15.8242057738">
        <ele>8907</ele>
        <time>2015-11-25T20:27:07Z</time>
        <extensions><gpxtpx:TrackPointExtension><gpxtpx:hr>166</gpxtpx:hr></gpxtpx:TrackPointExtension></extensions>
      </trkpt>
      <trkpt lat="59.983492893904" lon="15.824084571526">
        <ele>8907</ele>
        <time>2015-11-25T20:27:11Z</time>
        <extensions><gpxtpx:TrackPointExtension><gpxtpx:hr>166</gpxtpx:hr></gpxtpx:TrackPointExtension></extensions>
      </trkpt>
      <trkpt lat="59.983381833729" lon="15.824081889318">
        <ele>8907</ele>
        <time>2015-11-25T20:27:16Z</time>
        <extensions><gpxtpx:TrackPointExtension><gpxtpx:hr>168</gpxtpx:hr></gpxtpx:TrackPointExtension></extensions>
      </trkpt>
      <trkpt lat="59.983370518164" lon="15.824111142149">
        <ele>8907</ele>
        <time>2015-11-25T20:27:17Z</time>
        <extensions><gpxtpx:TrackPointExtension><gpxtpx:hr>168</gpxtpx:hr></gpxtpx:TrackPointExtension></extensions>
      </trkpt>
      <trkpt lat="59.983345791559" lon="15.824175682779">
        <ele>8907</ele>
        <time>2015-11-25T20:27:19Z</time>
        <extensions><gpxtpx:TrackPointExtension><gpxtpx:hr>168</gpxtpx:hr></gpxtpx:TrackPointExtension></extensions>
      </trkpt>
      <trkpt lat="59.983334895089" lon="15.824202504859">
        <ele>8907</ele>
        <time>2015-11-25T20:27:20Z</time>
        <extensions><gpxtpx:TrackPointExtension><gpxtpx:hr>167</gpxtpx:hr></gpxtpx:TrackPointExtension></extensions>
      </trkpt>
      <trkpt lat="59.983309330294" lon="15.824431330729">
        <ele>8907</ele>
        <time>2015-11-25T20:27:25Z</time>
        <extensions><gpxtpx:TrackPointExtension><gpxtpx:hr>166</gpxtpx:hr></gpxtpx:TrackPointExtension></extensions>
      </trkpt>
      <trkpt lat="59.983238167963" lon="15.824615229615">
        <ele>8907</ele>
        <time>2015-11-25T20:27:30Z</time>
        <extensions><gpxtpx:TrackPointExtension><gpxtpx:hr>167</gpxtpx:hr></gpxtpx:TrackPointExtension></extensions>
      </trkpt>
      <trkpt lat="59.983222745267" lon="15.824712292017">
        <ele>8907</ele>
        <time>2015-11-25T20:27:33Z</time>
        <extensions><gpxtpx:TrackPointExtension><gpxtpx:hr>167</gpxtpx:hr></gpxtpx:TrackPointExtension></extensions>
      </trkpt>
      <trkpt lat="59.983233725556" lon="15.824737018622">
        <ele>8907</ele>
        <time>2015-11-25T20:27:34Z</time>
        <extensions><gpxtpx:TrackPointExtension><gpxtpx:hr>167</gpxtpx:hr></gpxtpx:TrackPointExtension></extensions>
      </trkpt>
      <trkpt lat="59.983292315037" lon="15.824870290832">
        <ele>8907</ele>
        <time>2015-11-25T20:27:39Z</time>
        <extensions><gpxtpx:TrackPointExtension><gpxtpx:hr>168</gpxtpx:hr></gpxtpx:TrackPointExtension></extensions>
      </trkpt>
      <trkpt lat="59.983356436572" lon="15.825017728453">
        <ele>8907</ele>
        <time>2015-11-25T20:27:44Z</time>
        <extensions><gpxtpx:TrackPointExtension><gpxtpx:hr>168</gpxtpx:hr></gpxtpx:TrackPointExtension></extensions>
      </trkpt>
      <trkpt lat="59.983429359102" lon="15.825190814688">
        <ele>8907</ele>
        <time>2015-11-25T20:27:49Z</time>
        <extensions><gpxtpx:TrackPointExtension><gpxtpx:hr>170</gpxtpx:hr></gpxtpx:TrackPointExtension></extensions>
      </trkpt>
      <trkpt lat="59.983473364077" lon="15.825401703292">
        <ele>8907</ele>
        <time>2015-11-25T20:27:54Z</time>
        <extensions><gpxtpx:TrackPointExtension><gpxtpx:hr>170</gpxtpx:hr></gpxtpx:TrackPointExtension></extensions>
      </trkpt>
      <trkpt lat="59.983518877794" lon="15.825558277184">
        <ele>8907</ele>
        <time>2015-11-25T20:27:58Z</time>
        <extensions><gpxtpx:TrackPointExtension><gpxtpx:hr>171</gpxtpx:hr></gpxtpx:TrackPointExtension></extensions>
      </trkpt>
      <trkpt lat="59.983569001556" lon="15.825722813881">
        <ele>8907</ele>
        <time>2015-11-25T20:28:03Z</time>
        <extensions><gpxtpx:TrackPointExtension><gpxtpx:hr>172</gpxtpx:hr></gpxtpx:TrackPointExtension></extensions>
      </trkpt>
      <trkpt lat="59.983591129772" lon="15.825790958728">
        <ele>8907</ele>
        <time>2015-11-25T20:28:05Z</time>
        <extensions><gpxtpx:TrackPointExtension><gpxtpx:hr>172</gpxtpx:hr></gpxtpx:TrackPointExtension></extensions>
      </trkpt>
      <trkpt lat="59.983639660973" lon="15.825897744134">
        <ele>8907</ele>
        <time>2015-11-25T20:28:09Z</time>
        <extensions><gpxtpx:TrackPointExtension><gpxtpx:hr>171</gpxtpx:hr></gpxtpx:TrackPointExtension></extensions>
      </trkpt>
      <trkpt lat="59.983695903522" lon="15.826012492345">
        <ele>8907</ele>
        <time>2015-11-25T20:28:13Z</time>
        <extensions><gpxtpx:TrackPointExtension><gpxtpx:hr>170</gpxtpx:hr></gpxtpx:TrackPointExtension></extensions>
      </trkpt>
      <trkpt lat="59.983706548535" lon="15.826055910587">
        <ele>8907</ele>
        <time>2015-11-25T20:28:14Z</time>
        <extensions><gpxtpx:TrackPointExtension><gpxtpx:hr>170</gpxtpx:hr></gpxtpx:TrackPointExtension></extensions>
      </trkpt>
      <trkpt lat="59.983779806341" lon="15.826250705943">
        <ele>8907</ele>
        <time>2015-11-25T20:28:19Z</time>
        <extensions><gpxtpx:TrackPointExtension><gpxtpx:hr>168</gpxtpx:hr></gpxtpx:TrackPointExtension></extensions>
      </trkpt>
      <trkpt lat="59.983861613685" lon="15.826466707506">
        <ele>8907</ele>
        <time>2015-11-25T20:28:25Z</time>
        <extensions><gpxtpx:TrackPointExtension><gpxtpx:hr>167</gpxtpx:hr></gpxtpx:TrackPointExtension></extensions>
      </trkpt>
      <trkpt lat="59.983969153462" lon="15.826524542616">
        <ele>8907</ele>
        <time>2015-11-25T20:28:30Z</time>
        <extensions><gpxtpx:TrackPointExtension><gpxtpx:hr>166</gpxtpx:hr></gpxtpx:TrackPointExtension></extensions>
      </trkpt>
      <trkpt lat="59.984050541711" lon="15.826516998906">
        <ele>8907</ele>
        <time>2015-11-25T20:28:34Z</time>
        <extensions><gpxtpx:TrackPointExtension><gpxtpx:hr>165</gpxtpx:hr></gpxtpx:TrackPointExtension></extensions>
      </trkpt>
      <trkpt lat="59.984192363459" lon="15.826568379953">
        <ele>8907</ele>
        <time>2015-11-25T20:28:40Z</time>
        <extensions><gpxtpx:TrackPointExtension><gpxtpx:hr>165</gpxtpx:hr></gpxtpx:TrackPointExtension></extensions>
      </trkpt>
      <trkpt lat="59.984329239886" lon="15.826662173414">
        <ele>8907</ele>
        <time>2015-11-25T20:28:46Z</time>
        <extensions><gpxtpx:TrackPointExtension><gpxtpx:hr>165</gpxtpx:hr></gpxtpx:TrackPointExtension></extensions>
      </trkpt>
      <trkpt lat="59.984414651447" lon="15.826767198621">
        <ele>8907</ele>
        <time>2015-11-25T20:28:51Z</time>
        <extensions><gpxtpx:TrackPointExtension><gpxtpx:hr>165</gpxtpx:hr></gpxtpx:TrackPointExtension></extensions>
      </trkpt>
      <trkpt lat="59.984515569523" lon="15.826935339535">
        <ele>8907</ele>
        <time>2015-11-25T20:28:56Z</time>
        <extensions><gpxtpx:TrackPointExtension><gpxtpx:hr>167</gpxtpx:hr></gpxtpx:TrackPointExtension></extensions>
      </trkpt>
      <trkpt lat="59.984668874474" lon="15.827077328921">
        <ele>8907</ele>
        <time>2015-11-25T20:29:03Z</time>
        <extensions><gpxtpx:TrackPointExtension><gpxtpx:hr>168</gpxtpx:hr></gpxtpx:TrackPointExtension></extensions>
      </trkpt>
      <trkpt lat="59.984787981273" lon="15.827163411034">
        <ele>8907</ele>
        <time>2015-11-25T20:29:09Z</time>
        <extensions><gpxtpx:TrackPointExtension><gpxtpx:hr>168</gpxtpx:hr></gpxtpx:TrackPointExtension></extensions>
      </trkpt>
      <trkpt lat="59.984850510247" lon="15.827372371801">
        <ele>8907</ele>
        <time>2015-11-25T20:29:15Z</time>
        <extensions><gpxtpx:TrackPointExtension><gpxtpx:hr>168</gpxtpx:hr></gpxtpx:TrackPointExtension></extensions>
      </trkpt>
      <trkpt lat="59.984844140003" lon="15.827500447233">
        <ele>8907</ele>
        <time>2015-11-25T20:29:18Z</time>
        <extensions><gpxtpx:TrackPointExtension><gpxtpx:hr>168</gpxtpx:hr></gpxtpx:TrackPointExtension></extensions>
      </trkpt>
      <trkpt lat="59.984819078122" lon="15.827627684475">
        <ele>8907</ele>
        <time>2015-11-25T20:29:21Z</time>
        <extensions><gpxtpx:TrackPointExtension><gpxtpx:hr>168</gpxtpx:hr></gpxtpx:TrackPointExtension></extensions>
      </trkpt>
      <trkpt lat="59.98481170205" lon="15.827675126029">
        <ele>8907</ele>
        <time>2015-11-25T20:29:23Z</time>
        <extensions><gpxtpx:TrackPointExtension><gpxtpx:hr>168</gpxtpx:hr></gpxtpx:TrackPointExtension></extensions>
      </trkpt>
    </trkseg>
  </trk>
</gpx>